<?xml version="1.0" encoding="UTF-8" standalone="no" ?>
<gpx xmlns="http://www.topografix.com/GPX/1/1" xmlns:xsi="http://www.w3.org/2001/XMLSchema-instance" xsi:schemaLocation="http://www.topografix.com/GPX/1/1 http://www.topografix.com/GPX/1/1/gpx.xsd" version="1.1" creator="VisuGPX - https://www.visugpx.com">
  <metadata>
    <name>RSPG VTT 201521/04/</name>
    <desc><![CDATA[a 14 avec Jean louis : Les eygaux/Aspremont/Aspres : beau circuit cool]]></desc>
  </metadata>
  <trk>
    <name><![CDATA[N°  Les Eygaux/Aspremont/Aspres/]]></name>
    <trkseg>
      <trkpt lat="44.52589" lon="5.78857">
        <ele>864.8432617</ele>
        <time>2015-04-21T07:47:34Z</time>
      </trkpt>
      <trkpt lat="44.52592" lon="5.78854">
        <ele>868.6884766</ele>
        <time>2015-04-21T07:47:43Z</time>
      </trkpt>
      <trkpt lat="44.52592" lon="5.78854">
        <ele>872.0529785</ele>
        <time>2015-04-21T07:47:44Z</time>
      </trkpt>
      <trkpt lat="44.52592" lon="5.78854">
        <ele>877.8210449</ele>
        <time>2015-04-21T07:47:46Z</time>
      </trkpt>
      <trkpt lat="44.52593" lon="5.78854">
        <ele>883.1081543</ele>
        <time>2015-04-21T07:47:48Z</time>
      </trkpt>
      <trkpt lat="44.52593" lon="5.78854">
        <ele>889.3566895</ele>
        <time>2015-04-21T07:47:50Z</time>
      </trkpt>
      <trkpt lat="44.52593" lon="5.78854">
        <ele>894.644043</ele>
        <time>2015-04-21T07:47:52Z</time>
      </trkpt>
      <trkpt lat="44.52593" lon="5.78853">
        <ele>898.9699707</ele>
        <time>2015-04-21T07:47:54Z</time>
      </trkpt>
      <trkpt lat="44.52593" lon="5.78853">
        <ele>903.7766113</ele>
        <time>2015-04-21T07:47:56Z</time>
      </trkpt>
      <trkpt lat="44.52593" lon="5.78853">
        <ele>907.6218262</ele>
        <time>2015-04-21T07:47:58Z</time>
      </trkpt>
      <trkpt lat="44.52593" lon="5.78853">
        <ele>910.9865723</ele>
        <time>2015-04-21T07:48:00Z</time>
      </trkpt>
      <trkpt lat="44.52592" lon="5.78853">
        <ele>914.8317871</ele>
        <time>2015-04-21T07:48:02Z</time>
      </trkpt>
      <trkpt lat="44.52592" lon="5.78853">
        <ele>917.7155762</ele>
        <time>2015-04-21T07:48:04Z</time>
      </trkpt>
      <trkpt lat="44.52592" lon="5.78853">
        <ele>923.0029297</ele>
        <time>2015-04-21T07:48:07Z</time>
      </trkpt>
      <trkpt lat="44.52592" lon="5.78853">
        <ele>926.8483887</ele>
        <time>2015-04-21T07:48:10Z</time>
      </trkpt>
      <trkpt lat="44.52592" lon="5.78853">
        <ele>930.6936035</ele>
        <time>2015-04-21T07:48:13Z</time>
      </trkpt>
      <trkpt lat="44.52592" lon="5.78853">
        <ele>934.5388184</ele>
        <time>2015-04-21T07:48:17Z</time>
      </trkpt>
      <trkpt lat="44.52592" lon="5.78853">
        <ele>937.9033203</ele>
        <time>2015-04-21T07:48:20Z</time>
      </trkpt>
      <trkpt lat="44.52592" lon="5.78853">
        <ele>941.2680664</ele>
        <time>2015-04-21T07:48:24Z</time>
      </trkpt>
      <trkpt lat="44.52592" lon="5.78853">
        <ele>944.6325684</ele>
        <time>2015-04-21T07:48:28Z</time>
      </trkpt>
      <trkpt lat="44.52592" lon="5.78853">
        <ele>947.5166016</ele>
        <time>2015-04-21T07:48:33Z</time>
      </trkpt>
      <trkpt lat="44.52592" lon="5.78853">
        <ele>950.8811035</ele>
        <time>2015-04-21T07:48:39Z</time>
      </trkpt>
      <trkpt lat="44.52592" lon="5.78853">
        <ele>951.8425293</ele>
        <time>2015-04-21T07:48:41Z</time>
      </trkpt>
      <trkpt lat="44.52592" lon="5.78853">
        <ele>952.8037109</ele>
        <time>2015-04-21T07:48:44Z</time>
      </trkpt>
      <trkpt lat="44.52592" lon="5.78853">
        <ele>956.168457</ele>
        <time>2015-04-21T07:48:53Z</time>
      </trkpt>
      <trkpt lat="44.52592" lon="5.78852">
        <ele>959.5332031</ele>
        <time>2015-04-21T07:49:09Z</time>
      </trkpt>
      <trkpt lat="44.52592" lon="5.78853">
        <ele>962.4169922</ele>
        <time>2015-04-21T07:49:33Z</time>
      </trkpt>
      <trkpt lat="44.52591" lon="5.78853">
        <ele>962.8977051</ele>
        <time>2015-04-21T07:51:25Z</time>
      </trkpt>
      <trkpt lat="44.52596" lon="5.78862">
        <ele>963.378418</ele>
        <time>2015-04-21T07:51:36Z</time>
      </trkpt>
      <trkpt lat="44.52597" lon="5.78858">
        <ele>963.378418</ele>
        <time>2015-04-21T07:52:13Z</time>
      </trkpt>
      <trkpt lat="44.52597" lon="5.78858">
        <ele>962.8977051</ele>
        <time>2015-04-21T07:52:27Z</time>
      </trkpt>
      <trkpt lat="44.52597" lon="5.78893">
        <ele>963.378418</ele>
        <time>2015-04-21T07:52:41Z</time>
      </trkpt>
      <trkpt lat="44.52608" lon="5.78927">
        <ele>962.8977051</ele>
        <time>2015-04-21T07:52:53Z</time>
      </trkpt>
      <trkpt lat="44.52594" lon="5.78958">
        <ele>962.8977051</ele>
        <time>2015-04-21T07:53:07Z</time>
      </trkpt>
      <trkpt lat="44.5259" lon="5.78959">
        <ele>962.8977051</ele>
        <time>2015-04-21T07:53:10Z</time>
      </trkpt>
      <trkpt lat="44.5258" lon="5.78965">
        <ele>963.378418</ele>
        <time>2015-04-21T07:53:16Z</time>
      </trkpt>
      <trkpt lat="44.52572" lon="5.7896">
        <ele>963.378418</ele>
        <time>2015-04-21T07:53:21Z</time>
      </trkpt>
      <trkpt lat="44.52544" lon="5.78906">
        <ele>963.8588867</ele>
        <time>2015-04-21T07:53:38Z</time>
      </trkpt>
      <trkpt lat="44.52531" lon="5.78875">
        <ele>963.8588867</ele>
        <time>2015-04-21T07:53:50Z</time>
      </trkpt>
      <trkpt lat="44.52506" lon="5.78819">
        <ele>962.8977051</ele>
        <time>2015-04-21T07:54:08Z</time>
      </trkpt>
      <trkpt lat="44.52492" lon="5.78796">
        <ele>962.4169922</ele>
        <time>2015-04-21T07:54:19Z</time>
      </trkpt>
      <trkpt lat="44.52483" lon="5.78788">
        <ele>962.4169922</ele>
        <time>2015-04-21T07:54:24Z</time>
      </trkpt>
      <trkpt lat="44.52475" lon="5.78778">
        <ele>961.9365234</ele>
        <time>2015-04-21T07:54:29Z</time>
      </trkpt>
      <trkpt lat="44.52448" lon="5.78728">
        <ele>961.9365234</ele>
        <time>2015-04-21T07:54:44Z</time>
      </trkpt>
      <trkpt lat="44.52426" lon="5.78671">
        <ele>960.9750977</ele>
        <time>2015-04-21T07:54:57Z</time>
      </trkpt>
      <trkpt lat="44.52411" lon="5.78643">
        <ele>959.5332031</ele>
        <time>2015-04-21T07:55:08Z</time>
      </trkpt>
      <trkpt lat="44.52402" lon="5.78633">
        <ele>959.0524902</ele>
        <time>2015-04-21T07:55:13Z</time>
      </trkpt>
      <trkpt lat="44.52376" lon="5.78598">
        <ele>957.1298828</ele>
        <time>2015-04-21T07:55:26Z</time>
      </trkpt>
      <trkpt lat="44.52359" lon="5.78558">
        <ele>957.6105957</ele>
        <time>2015-04-21T07:55:35Z</time>
      </trkpt>
      <trkpt lat="44.52349" lon="5.78531">
        <ele>956.6491699</ele>
        <time>2015-04-21T07:55:40Z</time>
      </trkpt>
      <trkpt lat="44.52328" lon="5.78465">
        <ele>956.168457</ele>
        <time>2015-04-21T07:55:55Z</time>
      </trkpt>
      <trkpt lat="44.52313" lon="5.7842">
        <ele>957.6105957</ele>
        <time>2015-04-21T07:56:09Z</time>
      </trkpt>
      <trkpt lat="44.52307" lon="5.78376">
        <ele>958.0913086</ele>
        <time>2015-04-21T07:56:23Z</time>
      </trkpt>
      <trkpt lat="44.52287" lon="5.7833">
        <ele>959.0524902</ele>
        <time>2015-04-21T07:56:37Z</time>
      </trkpt>
      <trkpt lat="44.52269" lon="5.78287">
        <ele>959.0524902</ele>
        <time>2015-04-21T07:56:49Z</time>
      </trkpt>
      <trkpt lat="44.52233" lon="5.78266">
        <ele>959.0524902</ele>
        <time>2015-04-21T07:57:03Z</time>
      </trkpt>
      <trkpt lat="44.52194" lon="5.78238">
        <ele>958.5717773</ele>
        <time>2015-04-21T07:57:19Z</time>
      </trkpt>
      <trkpt lat="44.52162" lon="5.78205">
        <ele>958.0913086</ele>
        <time>2015-04-21T07:57:32Z</time>
      </trkpt>
      <trkpt lat="44.52138" lon="5.78181">
        <ele>957.6105957</ele>
        <time>2015-04-21T07:57:44Z</time>
      </trkpt>
      <trkpt lat="44.52132" lon="5.78172">
        <ele>958.0913086</ele>
        <time>2015-04-21T07:57:48Z</time>
      </trkpt>
      <trkpt lat="44.52109" lon="5.78087">
        <ele>956.6491699</ele>
        <time>2015-04-21T07:58:04Z</time>
      </trkpt>
      <trkpt lat="44.52097" lon="5.7803">
        <ele>955.6877441</ele>
        <time>2015-04-21T07:58:17Z</time>
      </trkpt>
      <trkpt lat="44.52081" lon="5.77968">
        <ele>955.6877441</ele>
        <time>2015-04-21T07:58:30Z</time>
      </trkpt>
      <trkpt lat="44.52062" lon="5.7788">
        <ele>954.7263184</ele>
        <time>2015-04-21T07:58:49Z</time>
      </trkpt>
      <trkpt lat="44.52052" lon="5.77833">
        <ele>954.7263184</ele>
        <time>2015-04-21T07:59:02Z</time>
      </trkpt>
      <trkpt lat="44.52036" lon="5.77775">
        <ele>954.2458496</ele>
        <time>2015-04-21T07:59:17Z</time>
      </trkpt>
      <trkpt lat="44.52012" lon="5.77721">
        <ele>954.7263184</ele>
        <time>2015-04-21T07:59:31Z</time>
      </trkpt>
      <trkpt lat="44.51995" lon="5.77676">
        <ele>954.7263184</ele>
        <time>2015-04-21T07:59:43Z</time>
      </trkpt>
      <trkpt lat="44.51985" lon="5.77649">
        <ele>953.7651367</ele>
        <time>2015-04-21T07:59:50Z</time>
      </trkpt>
      <trkpt lat="44.51959" lon="5.77583">
        <ele>953.2844238</ele>
        <time>2015-04-21T08:00:05Z</time>
      </trkpt>
      <trkpt lat="44.51944" lon="5.77544">
        <ele>952.8037109</ele>
        <time>2015-04-21T08:00:15Z</time>
      </trkpt>
      <trkpt lat="44.5192" lon="5.77494">
        <ele>951.8425293</ele>
        <time>2015-04-21T08:00:26Z</time>
      </trkpt>
      <trkpt lat="44.51891" lon="5.7745">
        <ele>951.3618164</ele>
        <time>2015-04-21T08:00:38Z</time>
      </trkpt>
      <trkpt lat="44.51875" lon="5.77396">
        <ele>949.9199219</ele>
        <time>2015-04-21T08:00:49Z</time>
      </trkpt>
      <trkpt lat="44.51834" lon="5.7731">
        <ele>949.439209</ele>
        <time>2015-04-21T08:01:07Z</time>
      </trkpt>
      <trkpt lat="44.51811" lon="5.77251">
        <ele>948.4777832</ele>
        <time>2015-04-21T08:01:20Z</time>
      </trkpt>
      <trkpt lat="44.51782" lon="5.77184">
        <ele>947.0358887</ele>
        <time>2015-04-21T08:01:35Z</time>
      </trkpt>
      <trkpt lat="44.51758" lon="5.77123">
        <ele>946.074707</ele>
        <time>2015-04-21T08:01:49Z</time>
      </trkpt>
      <trkpt lat="44.51741" lon="5.77084">
        <ele>945.1132813</ele>
        <time>2015-04-21T08:02:00Z</time>
      </trkpt>
      <trkpt lat="44.51717" lon="5.77032">
        <ele>943.6713867</ele>
        <time>2015-04-21T08:02:11Z</time>
      </trkpt>
      <trkpt lat="44.51688" lon="5.76971">
        <ele>942.2294922</ele>
        <time>2015-04-21T08:02:25Z</time>
      </trkpt>
      <trkpt lat="44.51652" lon="5.76924">
        <ele>940.3068848</ele>
        <time>2015-04-21T08:02:38Z</time>
      </trkpt>
      <trkpt lat="44.51614" lon="5.76897">
        <ele>938.8647461</ele>
        <time>2015-04-21T08:02:49Z</time>
      </trkpt>
      <trkpt lat="44.51564" lon="5.76856">
        <ele>935.9807129</ele>
        <time>2015-04-21T08:03:04Z</time>
      </trkpt>
      <trkpt lat="44.51536" lon="5.76821">
        <ele>932.135498</ele>
        <time>2015-04-21T08:03:14Z</time>
      </trkpt>
      <trkpt lat="44.51513" lon="5.76789">
        <ele>929.2514648</ele>
        <time>2015-04-21T08:03:24Z</time>
      </trkpt>
      <trkpt lat="44.51502" lon="5.76752">
        <ele>926.3676758</ele>
        <time>2015-04-21T08:03:31Z</time>
      </trkpt>
      <trkpt lat="44.51491" lon="5.76715">
        <ele>923.9641113</ele>
        <time>2015-04-21T08:03:38Z</time>
      </trkpt>
      <trkpt lat="44.51492" lon="5.767">
        <ele>922.0415039</ele>
        <time>2015-04-21T08:03:41Z</time>
      </trkpt>
      <trkpt lat="44.51491" lon="5.76673">
        <ele>920.5996094</ele>
        <time>2015-04-21T08:03:46Z</time>
      </trkpt>
      <trkpt lat="44.51489" lon="5.76654">
        <ele>919.1577148</ele>
        <time>2015-04-21T08:03:49Z</time>
      </trkpt>
      <trkpt lat="44.51505" lon="5.76583">
        <ele>915.7932129</ele>
        <time>2015-04-21T08:03:58Z</time>
      </trkpt>
      <trkpt lat="44.51515" lon="5.76553">
        <ele>912.9091797</ele>
        <time>2015-04-21T08:04:02Z</time>
      </trkpt>
      <trkpt lat="44.51533" lon="5.76503">
        <ele>909.0639648</ele>
        <time>2015-04-21T08:04:10Z</time>
      </trkpt>
      <trkpt lat="44.51545" lon="5.76437">
        <ele>905.2185059</ele>
        <time>2015-04-21T08:04:21Z</time>
      </trkpt>
      <trkpt lat="44.51551" lon="5.76403">
        <ele>903.7766113</ele>
        <time>2015-04-21T08:04:29Z</time>
      </trkpt>
      <trkpt lat="44.51545" lon="5.76399">
        <ele>902.8151855</ele>
        <time>2015-04-21T08:04:40Z</time>
      </trkpt>
      <trkpt lat="44.51544" lon="5.76399">
        <ele>901.373291</ele>
        <time>2015-04-21T08:04:43Z</time>
      </trkpt>
      <trkpt lat="44.51544" lon="5.76398">
        <ele>902.8151855</ele>
        <time>2015-04-21T08:04:45Z</time>
      </trkpt>
      <trkpt lat="44.51545" lon="5.76399">
        <ele>901.8540039</ele>
        <time>2015-04-21T08:04:59Z</time>
      </trkpt>
      <trkpt lat="44.51545" lon="5.764">
        <ele>903.7766113</ele>
        <time>2015-04-21T08:05:22Z</time>
      </trkpt>
      <trkpt lat="44.51542" lon="5.76407">
        <ele>903.7766113</ele>
        <time>2015-04-21T08:05:26Z</time>
      </trkpt>
      <trkpt lat="44.51539" lon="5.76426">
        <ele>902.8151855</ele>
        <time>2015-04-21T08:05:30Z</time>
      </trkpt>
      <trkpt lat="44.51531" lon="5.76456">
        <ele>901.8540039</ele>
        <time>2015-04-21T08:05:35Z</time>
      </trkpt>
      <trkpt lat="44.51504" lon="5.76501">
        <ele>898.4892578</ele>
        <time>2015-04-21T08:05:43Z</time>
      </trkpt>
      <trkpt lat="44.51487" lon="5.76501">
        <ele>897.0473633</ele>
        <time>2015-04-21T08:05:50Z</time>
      </trkpt>
      <trkpt lat="44.5148" lon="5.76477">
        <ele>895.6054688</ele>
        <time>2015-04-21T08:05:54Z</time>
      </trkpt>
      <trkpt lat="44.51447" lon="5.76434">
        <ele>893.2021484</ele>
        <time>2015-04-21T08:06:05Z</time>
      </trkpt>
      <trkpt lat="44.51438" lon="5.76428">
        <ele>891.7600098</ele>
        <time>2015-04-21T08:06:07Z</time>
      </trkpt>
      <trkpt lat="44.51424" lon="5.76416">
        <ele>889.8374023</ele>
        <time>2015-04-21T08:06:11Z</time>
      </trkpt>
      <trkpt lat="44.51413" lon="5.76411">
        <ele>888.8762207</ele>
        <time>2015-04-21T08:06:14Z</time>
      </trkpt>
      <trkpt lat="44.51397" lon="5.76406">
        <ele>887.434082</ele>
        <time>2015-04-21T08:06:18Z</time>
      </trkpt>
      <trkpt lat="44.51385" lon="5.76397">
        <ele>885.5114746</ele>
        <time>2015-04-21T08:06:21Z</time>
      </trkpt>
      <trkpt lat="44.51381" lon="5.76391">
        <ele>885.0310059</ele>
        <time>2015-04-21T08:06:22Z</time>
      </trkpt>
      <trkpt lat="44.5137" lon="5.76374">
        <ele>882.1469727</ele>
        <time>2015-04-21T08:06:25Z</time>
      </trkpt>
      <trkpt lat="44.51362" lon="5.76362">
        <ele>881.6662598</ele>
        <time>2015-04-21T08:06:27Z</time>
      </trkpt>
      <trkpt lat="44.51353" lon="5.76344">
        <ele>879.2629395</ele>
        <time>2015-04-21T08:06:30Z</time>
      </trkpt>
      <trkpt lat="44.51345" lon="5.7633">
        <ele>877.3405762</ele>
        <time>2015-04-21T08:06:35Z</time>
      </trkpt>
      <trkpt lat="44.51342" lon="5.76331">
        <ele>876.3791504</ele>
        <time>2015-04-21T08:06:37Z</time>
      </trkpt>
      <trkpt lat="44.51295" lon="5.76351">
        <ele>873.9755859</ele>
        <time>2015-04-21T08:06:48Z</time>
      </trkpt>
      <trkpt lat="44.51279" lon="5.76357">
        <ele>871.5722656</ele>
        <time>2015-04-21T08:06:51Z</time>
      </trkpt>
      <trkpt lat="44.51268" lon="5.7636">
        <ele>870.1303711</ele>
        <time>2015-04-21T08:06:53Z</time>
      </trkpt>
      <trkpt lat="44.5124" lon="5.76362">
        <ele>867.7270508</ele>
        <time>2015-04-21T08:06:58Z</time>
      </trkpt>
      <trkpt lat="44.51227" lon="5.76361">
        <ele>866.2851563</ele>
        <time>2015-04-21T08:07:00Z</time>
      </trkpt>
      <trkpt lat="44.51214" lon="5.76362">
        <ele>864.3625488</ele>
        <time>2015-04-21T08:07:02Z</time>
      </trkpt>
      <trkpt lat="44.51194" lon="5.76361">
        <ele>861.9594727</ele>
        <time>2015-04-21T08:07:05Z</time>
      </trkpt>
      <trkpt lat="44.51188" lon="5.76361">
        <ele>860.9980469</ele>
        <time>2015-04-21T08:07:06Z</time>
      </trkpt>
      <trkpt lat="44.51157" lon="5.76371">
        <ele>857.1525879</ele>
        <time>2015-04-21T08:07:12Z</time>
      </trkpt>
      <trkpt lat="44.51146" lon="5.76374">
        <ele>856.1911621</ele>
        <time>2015-04-21T08:07:14Z</time>
      </trkpt>
      <trkpt lat="44.51125" lon="5.76381">
        <ele>854.2687988</ele>
        <time>2015-04-21T08:07:18Z</time>
      </trkpt>
      <trkpt lat="44.51109" lon="5.76386">
        <ele>851.8654785</ele>
        <time>2015-04-21T08:07:21Z</time>
      </trkpt>
      <trkpt lat="44.51064" lon="5.76391">
        <ele>848.9814453</ele>
        <time>2015-04-21T08:07:27Z</time>
      </trkpt>
      <trkpt lat="44.51056" lon="5.76392">
        <ele>848.9814453</ele>
        <time>2015-04-21T08:07:28Z</time>
      </trkpt>
      <trkpt lat="44.51041" lon="5.76392">
        <ele>847.0588379</ele>
        <time>2015-04-21T08:07:30Z</time>
      </trkpt>
      <trkpt lat="44.51028" lon="5.76393">
        <ele>845.6169434</ele>
        <time>2015-04-21T08:07:32Z</time>
      </trkpt>
      <trkpt lat="44.51018" lon="5.76393">
        <ele>843.6940918</ele>
        <time>2015-04-21T08:07:34Z</time>
      </trkpt>
      <trkpt lat="44.50999" lon="5.76393">
        <ele>842.7329102</ele>
        <time>2015-04-21T08:07:39Z</time>
      </trkpt>
      <trkpt lat="44.50997" lon="5.76393">
        <ele>841.7714844</ele>
        <time>2015-04-21T08:07:53Z</time>
      </trkpt>
      <trkpt lat="44.50985" lon="5.76395">
        <ele>842.2521973</ele>
        <time>2015-04-21T08:11:03Z</time>
      </trkpt>
      <trkpt lat="44.50935" lon="5.76399">
        <ele>839.3681641</ele>
        <time>2015-04-21T08:11:14Z</time>
      </trkpt>
      <trkpt lat="44.50877" lon="5.76394">
        <ele>835.5229492</ele>
        <time>2015-04-21T08:11:27Z</time>
      </trkpt>
      <trkpt lat="44.50856" lon="5.76389">
        <ele>834.0810547</ele>
        <time>2015-04-21T08:11:31Z</time>
      </trkpt>
      <trkpt lat="44.50831" lon="5.76383">
        <ele>831.1972656</ele>
        <time>2015-04-21T08:11:36Z</time>
      </trkpt>
      <trkpt lat="44.50822" lon="5.76379">
        <ele>829.755127</ele>
        <time>2015-04-21T08:11:38Z</time>
      </trkpt>
      <trkpt lat="44.50805" lon="5.76352">
        <ele>826.3903809</ele>
        <time>2015-04-21T08:11:44Z</time>
      </trkpt>
      <trkpt lat="44.50793" lon="5.76339">
        <ele>824.9484863</ele>
        <time>2015-04-21T08:11:51Z</time>
      </trkpt>
      <trkpt lat="44.50782" lon="5.76347">
        <ele>824.9484863</ele>
        <time>2015-04-21T08:11:56Z</time>
      </trkpt>
      <trkpt lat="44.50774" lon="5.76344">
        <ele>825.4289551</ele>
        <time>2015-04-21T08:12:01Z</time>
      </trkpt>
      <trkpt lat="44.50749" lon="5.7633">
        <ele>829.2744141</ele>
        <time>2015-04-21T08:12:16Z</time>
      </trkpt>
      <trkpt lat="44.50712" lon="5.76321">
        <ele>832.1584473</ele>
        <time>2015-04-21T08:12:35Z</time>
      </trkpt>
      <trkpt lat="44.50664" lon="5.76297">
        <ele>831.6777344</ele>
        <time>2015-04-21T08:12:51Z</time>
      </trkpt>
      <trkpt lat="44.50611" lon="5.76269">
        <ele>833.1196289</ele>
        <time>2015-04-21T08:13:10Z</time>
      </trkpt>
      <trkpt lat="44.50554" lon="5.76222">
        <ele>833.1196289</ele>
        <time>2015-04-21T08:13:31Z</time>
      </trkpt>
      <trkpt lat="44.50511" lon="5.76169">
        <ele>833.1196289</ele>
        <time>2015-04-21T08:13:48Z</time>
      </trkpt>
      <trkpt lat="44.50484" lon="5.7615">
        <ele>832.6391602</ele>
        <time>2015-04-21T08:13:57Z</time>
      </trkpt>
      <trkpt lat="44.50456" lon="5.76125">
        <ele>830.2358398</ele>
        <time>2015-04-21T08:14:04Z</time>
      </trkpt>
      <trkpt lat="44.50423" lon="5.76109">
        <ele>827.8322754</ele>
        <time>2015-04-21T08:14:11Z</time>
      </trkpt>
      <trkpt lat="44.50361" lon="5.76072">
        <ele>824.4677734</ele>
        <time>2015-04-21T08:14:25Z</time>
      </trkpt>
      <trkpt lat="44.50328" lon="5.76044">
        <ele>825.909668</ele>
        <time>2015-04-21T08:14:39Z</time>
      </trkpt>
      <trkpt lat="44.50303" lon="5.76001">
        <ele>826.8710938</ele>
        <time>2015-04-21T08:14:53Z</time>
      </trkpt>
      <trkpt lat="44.50282" lon="5.7596">
        <ele>829.2744141</ele>
        <time>2015-04-21T08:15:10Z</time>
      </trkpt>
      <trkpt lat="44.50281" lon="5.75958">
        <ele>829.2744141</ele>
        <time>2015-04-21T08:15:11Z</time>
      </trkpt>
      <trkpt lat="44.50276" lon="5.75949">
        <ele>829.755127</ele>
        <time>2015-04-21T08:15:15Z</time>
      </trkpt>
      <trkpt lat="44.5027" lon="5.75934">
        <ele>830.7165527</ele>
        <time>2015-04-21T08:15:32Z</time>
      </trkpt>
      <trkpt lat="44.50268" lon="5.7594">
        <ele>830.2358398</ele>
        <time>2015-04-21T08:15:52Z</time>
      </trkpt>
      <trkpt lat="44.50264" lon="5.75934">
        <ele>830.7165527</ele>
        <time>2015-04-21T08:16:00Z</time>
      </trkpt>
      <trkpt lat="44.50264" lon="5.75908">
        <ele>834.0810547</ele>
        <time>2015-04-21T08:16:15Z</time>
      </trkpt>
      <trkpt lat="44.50262" lon="5.75894">
        <ele>835.5229492</ele>
        <time>2015-04-21T08:16:29Z</time>
      </trkpt>
      <trkpt lat="44.50259" lon="5.75873">
        <ele>838.4069824</ele>
        <time>2015-04-21T08:16:46Z</time>
      </trkpt>
      <trkpt lat="44.50261" lon="5.75864">
        <ele>839.3681641</ele>
        <time>2015-04-21T08:16:53Z</time>
      </trkpt>
      <trkpt lat="44.50264" lon="5.75841">
        <ele>842.2521973</ele>
        <time>2015-04-21T08:17:12Z</time>
      </trkpt>
      <trkpt lat="44.50261" lon="5.75826">
        <ele>844.6555176</ele>
        <time>2015-04-21T08:17:28Z</time>
      </trkpt>
      <trkpt lat="44.5026" lon="5.75809">
        <ele>847.0588379</ele>
        <time>2015-04-21T08:17:45Z</time>
      </trkpt>
      <trkpt lat="44.50259" lon="5.75788">
        <ele>849.9428711</ele>
        <time>2015-04-21T08:18:07Z</time>
      </trkpt>
      <trkpt lat="44.50256" lon="5.75772">
        <ele>852.8266602</ele>
        <time>2015-04-21T08:18:24Z</time>
      </trkpt>
      <trkpt lat="44.50256" lon="5.7575">
        <ele>855.2299805</ele>
        <time>2015-04-21T08:18:47Z</time>
      </trkpt>
      <trkpt lat="44.50262" lon="5.75729">
        <ele>858.1140137</ele>
        <time>2015-04-21T08:19:09Z</time>
      </trkpt>
      <trkpt lat="44.50263" lon="5.7572">
        <ele>859.0751953</ele>
        <time>2015-04-21T08:19:17Z</time>
      </trkpt>
      <trkpt lat="44.50266" lon="5.75704">
        <ele>860.517334</ele>
        <time>2015-04-21T08:19:35Z</time>
      </trkpt>
      <trkpt lat="44.50268" lon="5.75697">
        <ele>860.9980469</ele>
        <time>2015-04-21T08:19:54Z</time>
      </trkpt>
      <trkpt lat="44.50266" lon="5.75688">
        <ele>861.4787598</ele>
        <time>2015-04-21T08:20:08Z</time>
      </trkpt>
      <trkpt lat="44.50268" lon="5.75654">
        <ele>863.4013672</ele>
        <time>2015-04-21T08:20:24Z</time>
      </trkpt>
      <trkpt lat="44.50273" lon="5.75605">
        <ele>866.2851563</ele>
        <time>2015-04-21T08:20:48Z</time>
      </trkpt>
      <trkpt lat="44.50274" lon="5.75596">
        <ele>867.246582</ele>
        <time>2015-04-21T08:20:52Z</time>
      </trkpt>
      <trkpt lat="44.50272" lon="5.75577">
        <ele>868.6884766</ele>
        <time>2015-04-21T08:21:02Z</time>
      </trkpt>
      <trkpt lat="44.50271" lon="5.75536">
        <ele>871.5722656</ele>
        <time>2015-04-21T08:21:25Z</time>
      </trkpt>
      <trkpt lat="44.50275" lon="5.75524">
        <ele>873.0144043</ele>
        <time>2015-04-21T08:21:32Z</time>
      </trkpt>
      <trkpt lat="44.50275" lon="5.75493">
        <ele>876.3791504</ele>
        <time>2015-04-21T08:21:50Z</time>
      </trkpt>
      <trkpt lat="44.50273" lon="5.75462">
        <ele>879.2629395</ele>
        <time>2015-04-21T08:22:07Z</time>
      </trkpt>
      <trkpt lat="44.50275" lon="5.7545">
        <ele>879.7436523</ele>
        <time>2015-04-21T08:22:15Z</time>
      </trkpt>
      <trkpt lat="44.50281" lon="5.75425">
        <ele>881.6662598</ele>
        <time>2015-04-21T08:22:31Z</time>
      </trkpt>
      <trkpt lat="44.50282" lon="5.75413">
        <ele>882.1469727</ele>
        <time>2015-04-21T08:22:37Z</time>
      </trkpt>
      <trkpt lat="44.5028" lon="5.75405">
        <ele>882.6276855</ele>
        <time>2015-04-21T08:22:41Z</time>
      </trkpt>
      <trkpt lat="44.50279" lon="5.75398">
        <ele>883.5888672</ele>
        <time>2015-04-21T08:22:45Z</time>
      </trkpt>
      <trkpt lat="44.50283" lon="5.75386">
        <ele>884.550293</ele>
        <time>2015-04-21T08:22:53Z</time>
      </trkpt>
      <trkpt lat="44.5028" lon="5.75382">
        <ele>885.0310059</ele>
        <time>2015-04-21T08:23:08Z</time>
      </trkpt>
      <trkpt lat="44.5028" lon="5.75384">
        <ele>884.0695801</ele>
        <time>2015-04-21T08:23:50Z</time>
      </trkpt>
      <trkpt lat="44.50279" lon="5.75384">
        <ele>885.5114746</ele>
        <time>2015-04-21T08:26:13Z</time>
      </trkpt>
      <trkpt lat="44.5028" lon="5.75384">
        <ele>884.550293</ele>
        <time>2015-04-21T08:27:32Z</time>
      </trkpt>
      <trkpt lat="44.5028" lon="5.75384">
        <ele>886.4729004</ele>
        <time>2015-04-21T08:27:46Z</time>
      </trkpt>
      <trkpt lat="44.5028" lon="5.75384">
        <ele>886.4729004</ele>
        <time>2015-04-21T08:29:12Z</time>
      </trkpt>
      <trkpt lat="44.50278" lon="5.75386">
        <ele>886.9533691</ele>
        <time>2015-04-21T08:30:40Z</time>
      </trkpt>
      <trkpt lat="44.50269" lon="5.75402">
        <ele>887.434082</ele>
        <time>2015-04-21T08:30:50Z</time>
      </trkpt>
      <trkpt lat="44.50249" lon="5.7542">
        <ele>888.3955078</ele>
        <time>2015-04-21T08:31:05Z</time>
      </trkpt>
      <trkpt lat="44.50225" lon="5.75431">
        <ele>890.3181152</ele>
        <time>2015-04-21T08:31:21Z</time>
      </trkpt>
      <trkpt lat="44.50198" lon="5.7546">
        <ele>893.2021484</ele>
        <time>2015-04-21T08:31:46Z</time>
      </trkpt>
      <trkpt lat="44.5018" lon="5.75492">
        <ele>895.6054688</ele>
        <time>2015-04-21T08:32:07Z</time>
      </trkpt>
      <trkpt lat="44.50166" lon="5.75531">
        <ele>897.0473633</ele>
        <time>2015-04-21T08:32:26Z</time>
      </trkpt>
      <trkpt lat="44.50163" lon="5.75538">
        <ele>897.5280762</ele>
        <time>2015-04-21T08:32:30Z</time>
      </trkpt>
      <trkpt lat="44.50149" lon="5.75573">
        <ele>899.4506836</ele>
        <time>2015-04-21T08:32:50Z</time>
      </trkpt>
      <trkpt lat="44.50125" lon="5.75618">
        <ele>901.373291</ele>
        <time>2015-04-21T08:33:14Z</time>
      </trkpt>
      <trkpt lat="44.50105" lon="5.75667">
        <ele>903.2958984</ele>
        <time>2015-04-21T08:33:36Z</time>
      </trkpt>
      <trkpt lat="44.5009" lon="5.75699">
        <ele>904.737793</ele>
        <time>2015-04-21T08:33:51Z</time>
      </trkpt>
      <trkpt lat="44.50057" lon="5.7572">
        <ele>904.2573242</ele>
        <time>2015-04-21T08:34:03Z</time>
      </trkpt>
      <trkpt lat="44.50039" lon="5.75728">
        <ele>903.7766113</ele>
        <time>2015-04-21T08:34:08Z</time>
      </trkpt>
      <trkpt lat="44.49997" lon="5.75748">
        <ele>902.3344727</ele>
        <time>2015-04-21T08:34:22Z</time>
      </trkpt>
      <trkpt lat="44.49966" lon="5.75765">
        <ele>902.8151855</ele>
        <time>2015-04-21T08:34:34Z</time>
      </trkpt>
      <trkpt lat="44.49931" lon="5.75794">
        <ele>903.7766113</ele>
        <time>2015-04-21T08:34:47Z</time>
      </trkpt>
      <trkpt lat="44.4989" lon="5.7582">
        <ele>902.8151855</ele>
        <time>2015-04-21T08:35:02Z</time>
      </trkpt>
      <trkpt lat="44.49871" lon="5.75824">
        <ele>902.8151855</ele>
        <time>2015-04-21T08:35:07Z</time>
      </trkpt>
      <trkpt lat="44.49843" lon="5.75825">
        <ele>901.8540039</ele>
        <time>2015-04-21T08:35:13Z</time>
      </trkpt>
      <trkpt lat="44.49775" lon="5.7585">
        <ele>898.9699707</ele>
        <time>2015-04-21T08:35:25Z</time>
      </trkpt>
      <trkpt lat="44.49751" lon="5.75852">
        <ele>898.0087891</ele>
        <time>2015-04-21T08:35:30Z</time>
      </trkpt>
      <trkpt lat="44.49738" lon="5.75851">
        <ele>897.0473633</ele>
        <time>2015-04-21T08:35:33Z</time>
      </trkpt>
      <trkpt lat="44.49726" lon="5.75853">
        <ele>895.6054688</ele>
        <time>2015-04-21T08:35:36Z</time>
      </trkpt>
      <trkpt lat="44.49705" lon="5.75849">
        <ele>891.7600098</ele>
        <time>2015-04-21T08:35:42Z</time>
      </trkpt>
      <trkpt lat="44.49703" lon="5.75848">
        <ele>891.7600098</ele>
        <time>2015-04-21T08:35:43Z</time>
      </trkpt>
      <trkpt lat="44.49682" lon="5.7584">
        <ele>888.8762207</ele>
        <time>2015-04-21T08:35:49Z</time>
      </trkpt>
      <trkpt lat="44.4965" lon="5.75832">
        <ele>885.9921875</ele>
        <time>2015-04-21T08:35:58Z</time>
      </trkpt>
      <trkpt lat="44.49629" lon="5.75834">
        <ele>885.5114746</ele>
        <time>2015-04-21T08:36:03Z</time>
      </trkpt>
      <trkpt lat="44.49587" lon="5.75843">
        <ele>884.0695801</ele>
        <time>2015-04-21T08:36:12Z</time>
      </trkpt>
      <trkpt lat="44.49545" lon="5.75841">
        <ele>881.6662598</ele>
        <time>2015-04-21T08:36:25Z</time>
      </trkpt>
      <trkpt lat="44.49523" lon="5.75832">
        <ele>879.7436523</ele>
        <time>2015-04-21T08:36:31Z</time>
      </trkpt>
      <trkpt lat="44.49491" lon="5.75827">
        <ele>876.8598633</ele>
        <time>2015-04-21T08:36:36Z</time>
      </trkpt>
      <trkpt lat="44.49453" lon="5.75827">
        <ele>875.8981934</ele>
        <time>2015-04-21T08:36:47Z</time>
      </trkpt>
      <trkpt lat="44.49423" lon="5.75824">
        <ele>874.4562988</ele>
        <time>2015-04-21T08:37:00Z</time>
      </trkpt>
      <trkpt lat="44.49422" lon="5.75824">
        <ele>874.4562988</ele>
        <time>2015-04-21T08:38:15Z</time>
      </trkpt>
      <trkpt lat="44.4939" lon="5.75806">
        <ele>871.5722656</ele>
        <time>2015-04-21T08:38:26Z</time>
      </trkpt>
      <trkpt lat="44.49387" lon="5.75803">
        <ele>871.5722656</ele>
        <time>2015-04-21T08:38:27Z</time>
      </trkpt>
      <trkpt lat="44.49349" lon="5.75782">
        <ele>869.1691895</ele>
        <time>2015-04-21T08:38:36Z</time>
      </trkpt>
      <trkpt lat="44.49344" lon="5.75779">
        <ele>868.6884766</ele>
        <time>2015-04-21T08:38:37Z</time>
      </trkpt>
      <trkpt lat="44.49278" lon="5.7575">
        <ele>864.3625488</ele>
        <time>2015-04-21T08:38:47Z</time>
      </trkpt>
      <trkpt lat="44.49271" lon="5.75746">
        <ele>864.3625488</ele>
        <time>2015-04-21T08:38:48Z</time>
      </trkpt>
      <trkpt lat="44.49265" lon="5.75744">
        <ele>862.9206543</ele>
        <time>2015-04-21T08:38:49Z</time>
      </trkpt>
      <trkpt lat="44.49222" lon="5.75728">
        <ele>860.517334</ele>
        <time>2015-04-21T08:38:55Z</time>
      </trkpt>
      <trkpt lat="44.49191" lon="5.75713">
        <ele>858.5944824</ele>
        <time>2015-04-21T08:38:59Z</time>
      </trkpt>
      <trkpt lat="44.49172" lon="5.75705">
        <ele>856.671875</ele>
        <time>2015-04-21T08:39:02Z</time>
      </trkpt>
      <trkpt lat="44.4916" lon="5.75701">
        <ele>855.7106934</ele>
        <time>2015-04-21T08:39:04Z</time>
      </trkpt>
      <trkpt lat="44.49143" lon="5.75694">
        <ele>855.2299805</ele>
        <time>2015-04-21T08:39:07Z</time>
      </trkpt>
      <trkpt lat="44.49121" lon="5.75688">
        <ele>853.307373</ele>
        <time>2015-04-21T08:39:11Z</time>
      </trkpt>
      <trkpt lat="44.49113" lon="5.75684">
        <ele>851.8654785</ele>
        <time>2015-04-21T08:39:13Z</time>
      </trkpt>
      <trkpt lat="44.49084" lon="5.75674">
        <ele>848.9814453</ele>
        <time>2015-04-21T08:39:19Z</time>
      </trkpt>
      <trkpt lat="44.49079" lon="5.75672">
        <ele>848.9814453</ele>
        <time>2015-04-21T08:39:20Z</time>
      </trkpt>
      <trkpt lat="44.49064" lon="5.75665">
        <ele>846.5783691</ele>
        <time>2015-04-21T08:39:23Z</time>
      </trkpt>
      <trkpt lat="44.49033" lon="5.75659">
        <ele>844.1750488</ele>
        <time>2015-04-21T08:39:30Z</time>
      </trkpt>
      <trkpt lat="44.48978" lon="5.75649">
        <ele>841.7714844</ele>
        <time>2015-04-21T08:39:42Z</time>
      </trkpt>
      <trkpt lat="44.48948" lon="5.75648">
        <ele>841.7714844</ele>
        <time>2015-04-21T08:39:50Z</time>
      </trkpt>
      <trkpt lat="44.4891" lon="5.75647">
        <ele>841.2907715</ele>
        <time>2015-04-21T08:40:00Z</time>
      </trkpt>
      <trkpt lat="44.48866" lon="5.75645">
        <ele>838.8876953</ele>
        <time>2015-04-21T08:40:09Z</time>
      </trkpt>
      <trkpt lat="44.48839" lon="5.75647">
        <ele>836.0036621</ele>
        <time>2015-04-21T08:40:16Z</time>
      </trkpt>
      <trkpt lat="44.48805" lon="5.75646">
        <ele>832.6391602</ele>
        <time>2015-04-21T08:40:24Z</time>
      </trkpt>
      <trkpt lat="44.48794" lon="5.75645">
        <ele>831.6777344</ele>
        <time>2015-04-21T08:40:27Z</time>
      </trkpt>
      <trkpt lat="44.48786" lon="5.75644">
        <ele>829.755127</ele>
        <time>2015-04-21T08:40:29Z</time>
      </trkpt>
      <trkpt lat="44.48755" lon="5.75643">
        <ele>825.909668</ele>
        <time>2015-04-21T08:40:38Z</time>
      </trkpt>
      <trkpt lat="44.48733" lon="5.75642">
        <ele>823.9870605</ele>
        <time>2015-04-21T08:40:44Z</time>
      </trkpt>
      <trkpt lat="44.48712" lon="5.75641">
        <ele>820.6225586</ele>
        <time>2015-04-21T08:40:49Z</time>
      </trkpt>
      <trkpt lat="44.48708" lon="5.75642">
        <ele>820.6225586</ele>
        <time>2015-04-21T08:40:50Z</time>
      </trkpt>
      <trkpt lat="44.48693" lon="5.75645">
        <ele>819.1806641</ele>
        <time>2015-04-21T08:40:53Z</time>
      </trkpt>
      <trkpt lat="44.48685" lon="5.75648">
        <ele>817.2580566</ele>
        <time>2015-04-21T08:40:55Z</time>
      </trkpt>
      <trkpt lat="44.48679" lon="5.7565">
        <ele>815.8161621</ele>
        <time>2015-04-21T08:40:57Z</time>
      </trkpt>
      <trkpt lat="44.48669" lon="5.75652">
        <ele>813.8933105</ele>
        <time>2015-04-21T08:41:00Z</time>
      </trkpt>
      <trkpt lat="44.48664" lon="5.75653">
        <ele>812.451416</ele>
        <time>2015-04-21T08:41:02Z</time>
      </trkpt>
      <trkpt lat="44.48646" lon="5.75654">
        <ele>810.5285645</ele>
        <time>2015-04-21T08:41:07Z</time>
      </trkpt>
      <trkpt lat="44.48636" lon="5.75654">
        <ele>809.5673828</ele>
        <time>2015-04-21T08:41:09Z</time>
      </trkpt>
      <trkpt lat="44.48615" lon="5.75654">
        <ele>806.2026367</ele>
        <time>2015-04-21T08:41:14Z</time>
      </trkpt>
      <trkpt lat="44.48574" lon="5.75657">
        <ele>801.8769531</ele>
        <time>2015-04-21T08:41:20Z</time>
      </trkpt>
      <trkpt lat="44.48568" lon="5.75657">
        <ele>801.8769531</ele>
        <time>2015-04-21T08:41:21Z</time>
      </trkpt>
      <trkpt lat="44.48557" lon="5.75657">
        <ele>800.4350586</ele>
        <time>2015-04-21T08:41:23Z</time>
      </trkpt>
      <trkpt lat="44.48541" lon="5.75657">
        <ele>798.512207</ele>
        <time>2015-04-21T08:41:26Z</time>
      </trkpt>
      <trkpt lat="44.4853" lon="5.75657">
        <ele>797.5510254</ele>
        <time>2015-04-21T08:41:28Z</time>
      </trkpt>
      <trkpt lat="44.48492" lon="5.75655">
        <ele>793.2248535</ele>
        <time>2015-04-21T08:41:35Z</time>
      </trkpt>
      <trkpt lat="44.48481" lon="5.75654">
        <ele>792.2636719</ele>
        <time>2015-04-21T08:41:37Z</time>
      </trkpt>
      <trkpt lat="44.48472" lon="5.75655">
        <ele>790.8215332</ele>
        <time>2015-04-21T08:41:39Z</time>
      </trkpt>
      <trkpt lat="44.4845" lon="5.75655">
        <ele>787.9377441</ele>
        <time>2015-04-21T08:41:44Z</time>
      </trkpt>
      <trkpt lat="44.48432" lon="5.7566">
        <ele>784.5732422</ele>
        <time>2015-04-21T08:41:50Z</time>
      </trkpt>
      <trkpt lat="44.48418" lon="5.75663">
        <ele>783.1311035</ele>
        <time>2015-04-21T08:41:54Z</time>
      </trkpt>
      <trkpt lat="44.48419" lon="5.75649">
        <ele>781.689209</ele>
        <time>2015-04-21T08:42:00Z</time>
      </trkpt>
      <trkpt lat="44.48428" lon="5.75632">
        <ele>780.7280273</ele>
        <time>2015-04-21T08:42:04Z</time>
      </trkpt>
      <trkpt lat="44.48437" lon="5.75585">
        <ele>777.3632813</ele>
        <time>2015-04-21T08:42:10Z</time>
      </trkpt>
      <trkpt lat="44.48441" lon="5.75569">
        <ele>775.9211426</ele>
        <time>2015-04-21T08:42:12Z</time>
      </trkpt>
      <trkpt lat="44.48443" lon="5.75561">
        <ele>774.479248</ele>
        <time>2015-04-21T08:42:13Z</time>
      </trkpt>
      <trkpt lat="44.48446" lon="5.75544">
        <ele>773.0373535</ele>
        <time>2015-04-21T08:42:16Z</time>
      </trkpt>
      <trkpt lat="44.48447" lon="5.75533">
        <ele>771.5952148</ele>
        <time>2015-04-21T08:42:18Z</time>
      </trkpt>
      <trkpt lat="44.48449" lon="5.75521">
        <ele>770.1533203</ele>
        <time>2015-04-21T08:42:21Z</time>
      </trkpt>
      <trkpt lat="44.4845" lon="5.75519">
        <ele>769.1921387</ele>
        <time>2015-04-21T08:42:34Z</time>
      </trkpt>
      <trkpt lat="44.4845" lon="5.75519">
        <ele>768.2307129</ele>
        <time>2015-04-21T08:43:00Z</time>
      </trkpt>
      <trkpt lat="44.4845" lon="5.75519">
        <ele>771.1147461</ele>
        <time>2015-04-21T08:43:02Z</time>
      </trkpt>
      <trkpt lat="44.4845" lon="5.7552">
        <ele>771.5952148</ele>
        <time>2015-04-21T08:43:31Z</time>
      </trkpt>
      <trkpt lat="44.4845" lon="5.7552">
        <ele>768.7114258</ele>
        <time>2015-04-21T08:43:40Z</time>
      </trkpt>
      <trkpt lat="44.4845" lon="5.7552">
        <ele>772.0759277</ele>
        <time>2015-04-21T08:43:47Z</time>
      </trkpt>
      <trkpt lat="44.4845" lon="5.75519">
        <ele>768.7114258</ele>
        <time>2015-04-21T08:44:02Z</time>
      </trkpt>
      <trkpt lat="44.4845" lon="5.75519">
        <ele>768.7114258</ele>
        <time>2015-04-21T08:44:03Z</time>
      </trkpt>
      <trkpt lat="44.4845" lon="5.75518">
        <ele>769.1921387</ele>
        <time>2015-04-21T08:45:50Z</time>
      </trkpt>
      <trkpt lat="44.48468" lon="5.75494">
        <ele>768.2307129</ele>
        <time>2015-04-21T08:45:57Z</time>
      </trkpt>
      <trkpt lat="44.48513" lon="5.75483">
        <ele>766.7888184</ele>
        <time>2015-04-21T08:46:07Z</time>
      </trkpt>
      <trkpt lat="44.48522" lon="5.7548">
        <ele>766.7888184</ele>
        <time>2015-04-21T08:46:10Z</time>
      </trkpt>
      <trkpt lat="44.48543" lon="5.75477">
        <ele>767.2695313</ele>
        <time>2015-04-21T08:46:19Z</time>
      </trkpt>
      <trkpt lat="44.48563" lon="5.7548">
        <ele>767.75</ele>
        <time>2015-04-21T08:46:27Z</time>
      </trkpt>
      <trkpt lat="44.48573" lon="5.75483">
        <ele>768.2307129</ele>
        <time>2015-04-21T08:46:32Z</time>
      </trkpt>
      <trkpt lat="44.48581" lon="5.75483">
        <ele>768.7114258</ele>
        <time>2015-04-21T08:46:36Z</time>
      </trkpt>
      <trkpt lat="44.48599" lon="5.7548">
        <ele>770.1533203</ele>
        <time>2015-04-21T08:46:45Z</time>
      </trkpt>
      <trkpt lat="44.48629" lon="5.75475">
        <ele>771.1147461</ele>
        <time>2015-04-21T08:46:59Z</time>
      </trkpt>
      <trkpt lat="44.48656" lon="5.75459">
        <ele>772.5566406</ele>
        <time>2015-04-21T08:47:11Z</time>
      </trkpt>
      <trkpt lat="44.48667" lon="5.75453">
        <ele>773.9985352</ele>
        <time>2015-04-21T08:47:18Z</time>
      </trkpt>
      <trkpt lat="44.4867" lon="5.75451">
        <ele>774.479248</ele>
        <time>2015-04-21T08:47:21Z</time>
      </trkpt>
      <trkpt lat="44.48673" lon="5.75451">
        <ele>774.9599609</ele>
        <time>2015-04-21T08:47:23Z</time>
      </trkpt>
      <trkpt lat="44.48702" lon="5.75442">
        <ele>775.9211426</ele>
        <time>2015-04-21T08:47:38Z</time>
      </trkpt>
      <trkpt lat="44.48717" lon="5.75434">
        <ele>776.4018555</ele>
        <time>2015-04-21T08:47:47Z</time>
      </trkpt>
      <trkpt lat="44.48731" lon="5.75427">
        <ele>776.4018555</ele>
        <time>2015-04-21T08:47:53Z</time>
      </trkpt>
      <trkpt lat="44.4876" lon="5.75415">
        <ele>775.9211426</ele>
        <time>2015-04-21T08:48:05Z</time>
      </trkpt>
      <trkpt lat="44.48777" lon="5.75407">
        <ele>774.9599609</ele>
        <time>2015-04-21T08:48:13Z</time>
      </trkpt>
      <trkpt lat="44.48802" lon="5.75401">
        <ele>775.4404297</ele>
        <time>2015-04-21T08:48:21Z</time>
      </trkpt>
      <trkpt lat="44.4882" lon="5.75395">
        <ele>774.9599609</ele>
        <time>2015-04-21T08:48:28Z</time>
      </trkpt>
      <trkpt lat="44.4885" lon="5.75382">
        <ele>774.9599609</ele>
        <time>2015-04-21T08:48:38Z</time>
      </trkpt>
      <trkpt lat="44.48882" lon="5.75368">
        <ele>774.9599609</ele>
        <time>2015-04-21T08:48:47Z</time>
      </trkpt>
      <trkpt lat="44.48926" lon="5.75355">
        <ele>776.8825684</ele>
        <time>2015-04-21T08:49:02Z</time>
      </trkpt>
      <trkpt lat="44.48972" lon="5.75349">
        <ele>776.8825684</ele>
        <time>2015-04-21T08:49:17Z</time>
      </trkpt>
      <trkpt lat="44.48992" lon="5.75348">
        <ele>776.8825684</ele>
        <time>2015-04-21T08:49:25Z</time>
      </trkpt>
      <trkpt lat="44.49019" lon="5.75351">
        <ele>776.4018555</ele>
        <time>2015-04-21T08:49:34Z</time>
      </trkpt>
      <trkpt lat="44.49058" lon="5.75359">
        <ele>775.4404297</ele>
        <time>2015-04-21T08:49:45Z</time>
      </trkpt>
      <trkpt lat="44.49083" lon="5.75361">
        <ele>777.3632813</ele>
        <time>2015-04-21T08:49:54Z</time>
      </trkpt>
      <trkpt lat="44.49112" lon="5.75354">
        <ele>779.2856445</ele>
        <time>2015-04-21T08:50:08Z</time>
      </trkpt>
      <trkpt lat="44.49121" lon="5.75354">
        <ele>779.2856445</ele>
        <time>2015-04-21T08:50:13Z</time>
      </trkpt>
      <trkpt lat="44.49171" lon="5.75347">
        <ele>777.84375</ele>
        <time>2015-04-21T08:50:29Z</time>
      </trkpt>
      <trkpt lat="44.49189" lon="5.75346">
        <ele>778.8051758</ele>
        <time>2015-04-21T08:50:38Z</time>
      </trkpt>
      <trkpt lat="44.49194" lon="5.75344">
        <ele>778.8051758</ele>
        <time>2015-04-21T08:50:40Z</time>
      </trkpt>
      <trkpt lat="44.49221" lon="5.75345">
        <ele>779.7663574</ele>
        <time>2015-04-21T08:50:52Z</time>
      </trkpt>
      <trkpt lat="44.49247" lon="5.75348">
        <ele>781.2087402</ele>
        <time>2015-04-21T08:51:04Z</time>
      </trkpt>
      <trkpt lat="44.49279" lon="5.75349">
        <ele>782.6506348</ele>
        <time>2015-04-21T08:51:18Z</time>
      </trkpt>
      <trkpt lat="44.49301" lon="5.75354">
        <ele>783.6118164</ele>
        <time>2015-04-21T08:51:29Z</time>
      </trkpt>
      <trkpt lat="44.49303" lon="5.75355">
        <ele>783.6118164</ele>
        <time>2015-04-21T08:51:30Z</time>
      </trkpt>
      <trkpt lat="44.49309" lon="5.75356">
        <ele>783.6118164</ele>
        <time>2015-04-21T08:51:33Z</time>
      </trkpt>
      <trkpt lat="44.49324" lon="5.75361">
        <ele>783.6118164</ele>
        <time>2015-04-21T08:51:42Z</time>
      </trkpt>
      <trkpt lat="44.49346" lon="5.75348">
        <ele>780.7280273</ele>
        <time>2015-04-21T08:51:51Z</time>
      </trkpt>
      <trkpt lat="44.49351" lon="5.75341">
        <ele>779.2856445</ele>
        <time>2015-04-21T08:51:53Z</time>
      </trkpt>
      <trkpt lat="44.49358" lon="5.75321">
        <ele>775.4404297</ele>
        <time>2015-04-21T08:51:59Z</time>
      </trkpt>
      <trkpt lat="44.49359" lon="5.75318">
        <ele>775.4404297</ele>
        <time>2015-04-21T08:52:00Z</time>
      </trkpt>
      <trkpt lat="44.49359" lon="5.75308">
        <ele>774.479248</ele>
        <time>2015-04-21T08:52:02Z</time>
      </trkpt>
      <trkpt lat="44.49355" lon="5.75286">
        <ele>771.5952148</ele>
        <time>2015-04-21T08:52:07Z</time>
      </trkpt>
      <trkpt lat="44.49352" lon="5.75278">
        <ele>770.1533203</ele>
        <time>2015-04-21T08:52:09Z</time>
      </trkpt>
      <trkpt lat="44.4935" lon="5.75271">
        <ele>769.6728516</ele>
        <time>2015-04-21T08:52:11Z</time>
      </trkpt>
      <trkpt lat="44.49347" lon="5.75255">
        <ele>767.75</ele>
        <time>2015-04-21T08:52:14Z</time>
      </trkpt>
      <trkpt lat="44.49346" lon="5.75243">
        <ele>766.3081055</ele>
        <time>2015-04-21T08:52:16Z</time>
      </trkpt>
      <trkpt lat="44.49348" lon="5.75231">
        <ele>764.8662109</ele>
        <time>2015-04-21T08:52:18Z</time>
      </trkpt>
      <trkpt lat="44.49352" lon="5.75224">
        <ele>763.904541</ele>
        <time>2015-04-21T08:52:20Z</time>
      </trkpt>
      <trkpt lat="44.49348" lon="5.75178">
        <ele>761.020752</ele>
        <time>2015-04-21T08:52:26Z</time>
      </trkpt>
      <trkpt lat="44.49336" lon="5.75134">
        <ele>759.0981445</ele>
        <time>2015-04-21T08:52:30Z</time>
      </trkpt>
      <trkpt lat="44.49312" lon="5.7504">
        <ele>755.2529297</ele>
        <time>2015-04-21T08:52:38Z</time>
      </trkpt>
      <trkpt lat="44.49291" lon="5.7495">
        <ele>752.3688965</ele>
        <time>2015-04-21T08:52:46Z</time>
      </trkpt>
      <trkpt lat="44.4928" lon="5.74894">
        <ele>750.4465332</ele>
        <time>2015-04-21T08:52:51Z</time>
      </trkpt>
      <trkpt lat="44.49235" lon="5.74754">
        <ele>747.5622559</ele>
        <time>2015-04-21T08:53:05Z</time>
      </trkpt>
      <trkpt lat="44.49231" lon="5.74744">
        <ele>747.081543</ele>
        <time>2015-04-21T08:53:06Z</time>
      </trkpt>
      <trkpt lat="44.49224" lon="5.74705">
        <ele>746.6010742</ele>
        <time>2015-04-21T08:53:10Z</time>
      </trkpt>
      <trkpt lat="44.49217" lon="5.74629">
        <ele>745.6396484</ele>
        <time>2015-04-21T08:53:19Z</time>
      </trkpt>
      <trkpt lat="44.49165" lon="5.74531">
        <ele>742.2751465</ele>
        <time>2015-04-21T08:53:31Z</time>
      </trkpt>
      <trkpt lat="44.49127" lon="5.74489">
        <ele>740.8330078</ele>
        <time>2015-04-21T08:53:37Z</time>
      </trkpt>
      <trkpt lat="44.49111" lon="5.7446">
        <ele>739.8718262</ele>
        <time>2015-04-21T08:53:41Z</time>
      </trkpt>
      <trkpt lat="44.49107" lon="5.74447">
        <ele>738.9106445</ele>
        <time>2015-04-21T08:53:49Z</time>
      </trkpt>
      <trkpt lat="44.49107" lon="5.74447">
        <ele>738.4299316</ele>
        <time>2015-04-21T08:55:26Z</time>
      </trkpt>
      <trkpt lat="44.49108" lon="5.74447">
        <ele>738.4299316</ele>
        <time>2015-04-21T08:56:17Z</time>
      </trkpt>
      <trkpt lat="44.49108" lon="5.74447">
        <ele>737.4685059</ele>
        <time>2015-04-21T08:57:10Z</time>
      </trkpt>
      <trkpt lat="44.49108" lon="5.74447">
        <ele>736.987793</ele>
        <time>2015-04-21T08:58:38Z</time>
      </trkpt>
      <trkpt lat="44.49128" lon="5.74396">
        <ele>738.4299316</ele>
        <time>2015-04-21T08:58:54Z</time>
      </trkpt>
      <trkpt lat="44.4916" lon="5.74321">
        <ele>738.9106445</ele>
        <time>2015-04-21T08:59:11Z</time>
      </trkpt>
      <trkpt lat="44.49204" lon="5.74193">
        <ele>737.9492188</ele>
        <time>2015-04-21T08:59:34Z</time>
      </trkpt>
      <trkpt lat="44.49203" lon="5.74074">
        <ele>736.0266113</ele>
        <time>2015-04-21T08:59:49Z</time>
      </trkpt>
      <trkpt lat="44.49184" lon="5.73887">
        <ele>733.1425781</ele>
        <time>2015-04-21T09:00:09Z</time>
      </trkpt>
      <trkpt lat="44.49171" lon="5.73711">
        <ele>731.2199707</ele>
        <time>2015-04-21T09:00:30Z</time>
      </trkpt>
      <trkpt lat="44.49159" lon="5.73557">
        <ele>730.7392578</ele>
        <time>2015-04-21T09:00:50Z</time>
      </trkpt>
      <trkpt lat="44.49145" lon="5.73419">
        <ele>727.3747559</ele>
        <time>2015-04-21T09:01:05Z</time>
      </trkpt>
      <trkpt lat="44.49123" lon="5.73287">
        <ele>725.4519043</ele>
        <time>2015-04-21T09:01:21Z</time>
      </trkpt>
      <trkpt lat="44.49117" lon="5.7321">
        <ele>724.9714355</ele>
        <time>2015-04-21T09:01:31Z</time>
      </trkpt>
      <trkpt lat="44.4912" lon="5.73052">
        <ele>722.5681152</ele>
        <time>2015-04-21T09:01:49Z</time>
      </trkpt>
      <trkpt lat="44.4913" lon="5.72929">
        <ele>722.5681152</ele>
        <time>2015-04-21T09:02:07Z</time>
      </trkpt>
      <trkpt lat="44.49146" lon="5.72898">
        <ele>722.5681152</ele>
        <time>2015-04-21T09:02:21Z</time>
      </trkpt>
      <trkpt lat="44.4915" lon="5.72874">
        <ele>722.0874023</ele>
        <time>2015-04-21T09:02:28Z</time>
      </trkpt>
      <trkpt lat="44.4915" lon="5.7286">
        <ele>722.0874023</ele>
        <time>2015-04-21T09:02:32Z</time>
      </trkpt>
      <trkpt lat="44.49144" lon="5.72851">
        <ele>722.5681152</ele>
        <time>2015-04-21T09:02:36Z</time>
      </trkpt>
      <trkpt lat="44.4914" lon="5.72849">
        <ele>723.0488281</ele>
        <time>2015-04-21T09:02:38Z</time>
      </trkpt>
      <trkpt lat="44.49135" lon="5.72841">
        <ele>723.0488281</ele>
        <time>2015-04-21T09:02:49Z</time>
      </trkpt>
      <trkpt lat="44.49136" lon="5.7284">
        <ele>723.529541</ele>
        <time>2015-04-21T09:02:53Z</time>
      </trkpt>
      <trkpt lat="44.49176" lon="5.72825">
        <ele>723.529541</ele>
        <time>2015-04-21T09:03:07Z</time>
      </trkpt>
      <trkpt lat="44.49206" lon="5.72833">
        <ele>723.529541</ele>
        <time>2015-04-21T09:03:17Z</time>
      </trkpt>
      <trkpt lat="44.49222" lon="5.72839">
        <ele>723.0488281</ele>
        <time>2015-04-21T09:03:21Z</time>
      </trkpt>
      <trkpt lat="44.49253" lon="5.72851">
        <ele>723.0488281</ele>
        <time>2015-04-21T09:03:29Z</time>
      </trkpt>
      <trkpt lat="44.4927" lon="5.72861">
        <ele>723.529541</ele>
        <time>2015-04-21T09:03:33Z</time>
      </trkpt>
      <trkpt lat="44.49286" lon="5.72861">
        <ele>723.0488281</ele>
        <time>2015-04-21T09:03:37Z</time>
      </trkpt>
      <trkpt lat="44.49325" lon="5.72867">
        <ele>723.529541</ele>
        <time>2015-04-21T09:03:49Z</time>
      </trkpt>
      <trkpt lat="44.49361" lon="5.7289">
        <ele>724.4907227</ele>
        <time>2015-04-21T09:04:03Z</time>
      </trkpt>
      <trkpt lat="44.49366" lon="5.72886">
        <ele>724.4907227</ele>
        <time>2015-04-21T09:04:17Z</time>
      </trkpt>
      <trkpt lat="44.49366" lon="5.72886">
        <ele>724.4907227</ele>
        <time>2015-04-21T09:04:25Z</time>
      </trkpt>
      <trkpt lat="44.49374" lon="5.72843">
        <ele>725.4519043</ele>
        <time>2015-04-21T09:04:37Z</time>
      </trkpt>
      <trkpt lat="44.49389" lon="5.72776">
        <ele>727.8552246</ele>
        <time>2015-04-21T09:04:58Z</time>
      </trkpt>
      <trkpt lat="44.49405" lon="5.72716">
        <ele>730.7392578</ele>
        <time>2015-04-21T09:05:17Z</time>
      </trkpt>
      <trkpt lat="44.49432" lon="5.72676">
        <ele>732.6621094</ele>
        <time>2015-04-21T09:05:34Z</time>
      </trkpt>
      <trkpt lat="44.49473" lon="5.72624">
        <ele>735.5458984</ele>
        <time>2015-04-21T09:05:57Z</time>
      </trkpt>
      <trkpt lat="44.49499" lon="5.72552">
        <ele>737.9492188</ele>
        <time>2015-04-21T09:06:21Z</time>
      </trkpt>
      <trkpt lat="44.49515" lon="5.725">
        <ele>738.9106445</ele>
        <time>2015-04-21T09:06:41Z</time>
      </trkpt>
      <trkpt lat="44.49544" lon="5.72521">
        <ele>739.3911133</ele>
        <time>2015-04-21T09:06:55Z</time>
      </trkpt>
      <trkpt lat="44.49586" lon="5.72567">
        <ele>737.9492188</ele>
        <time>2015-04-21T09:07:06Z</time>
      </trkpt>
      <trkpt lat="44.49627" lon="5.72599">
        <ele>737.9492188</ele>
        <time>2015-04-21T09:07:19Z</time>
      </trkpt>
      <trkpt lat="44.49687" lon="5.726">
        <ele>738.9106445</ele>
        <time>2015-04-21T09:07:38Z</time>
      </trkpt>
      <trkpt lat="44.49739" lon="5.72608">
        <ele>739.3911133</ele>
        <time>2015-04-21T09:07:59Z</time>
      </trkpt>
      <trkpt lat="44.49754" lon="5.7264">
        <ele>741.7944336</ele>
        <time>2015-04-21T09:08:19Z</time>
      </trkpt>
      <trkpt lat="44.49767" lon="5.72661">
        <ele>745.1589355</ele>
        <time>2015-04-21T09:08:34Z</time>
      </trkpt>
      <trkpt lat="44.49783" lon="5.72678">
        <ele>748.5236816</ele>
        <time>2015-04-21T09:08:52Z</time>
      </trkpt>
      <trkpt lat="44.49799" lon="5.72688">
        <ele>751.8884277</ele>
        <time>2015-04-21T09:09:07Z</time>
      </trkpt>
      <trkpt lat="44.49814" lon="5.72705">
        <ele>754.291748</ele>
        <time>2015-04-21T09:09:26Z</time>
      </trkpt>
      <trkpt lat="44.49819" lon="5.72712">
        <ele>755.7336426</ele>
        <time>2015-04-21T09:09:32Z</time>
      </trkpt>
      <trkpt lat="44.49833" lon="5.72721">
        <ele>758.1369629</ele>
        <time>2015-04-21T09:09:46Z</time>
      </trkpt>
      <trkpt lat="44.49843" lon="5.72728">
        <ele>760.0593262</ele>
        <time>2015-04-21T09:10:04Z</time>
      </trkpt>
      <trkpt lat="44.49857" lon="5.72743">
        <ele>762.4626465</ele>
        <time>2015-04-21T09:10:25Z</time>
      </trkpt>
      <trkpt lat="44.49873" lon="5.7276">
        <ele>764.8662109</ele>
        <time>2015-04-21T09:10:47Z</time>
      </trkpt>
      <trkpt lat="44.4989" lon="5.72778">
        <ele>768.2307129</ele>
        <time>2015-04-21T09:11:11Z</time>
      </trkpt>
      <trkpt lat="44.49904" lon="5.72798">
        <ele>771.1147461</ele>
        <time>2015-04-21T09:11:32Z</time>
      </trkpt>
      <trkpt lat="44.4992" lon="5.72812">
        <ele>773.9985352</ele>
        <time>2015-04-21T09:11:55Z</time>
      </trkpt>
      <trkpt lat="44.49926" lon="5.72819">
        <ele>775.4404297</ele>
        <time>2015-04-21T09:12:04Z</time>
      </trkpt>
      <trkpt lat="44.49944" lon="5.72833">
        <ele>778.3244629</ele>
        <time>2015-04-21T09:12:26Z</time>
      </trkpt>
      <trkpt lat="44.49959" lon="5.72845">
        <ele>780.7280273</ele>
        <time>2015-04-21T09:12:46Z</time>
      </trkpt>
      <trkpt lat="44.49975" lon="5.72854">
        <ele>783.1311035</ele>
        <time>2015-04-21T09:13:06Z</time>
      </trkpt>
      <trkpt lat="44.4999" lon="5.72864">
        <ele>785.5344238</ele>
        <time>2015-04-21T09:13:25Z</time>
      </trkpt>
      <trkpt lat="44.50011" lon="5.72867">
        <ele>786.9763184</ele>
        <time>2015-04-21T09:13:48Z</time>
      </trkpt>
      <trkpt lat="44.50015" lon="5.7287">
        <ele>787.4570313</ele>
        <time>2015-04-21T09:14:02Z</time>
      </trkpt>
      <trkpt lat="44.50027" lon="5.72874">
        <ele>787.9377441</ele>
        <time>2015-04-21T09:14:10Z</time>
      </trkpt>
      <trkpt lat="44.50061" lon="5.72889">
        <ele>787.4570313</ele>
        <time>2015-04-21T09:14:30Z</time>
      </trkpt>
      <trkpt lat="44.50088" lon="5.72894">
        <ele>787.4570313</ele>
        <time>2015-04-21T09:14:43Z</time>
      </trkpt>
      <trkpt lat="44.50097" lon="5.72889">
        <ele>787.9377441</ele>
        <time>2015-04-21T09:14:48Z</time>
      </trkpt>
      <trkpt lat="44.50154" lon="5.72888">
        <ele>789.3796387</ele>
        <time>2015-04-21T09:15:12Z</time>
      </trkpt>
      <trkpt lat="44.50208" lon="5.72891">
        <ele>791.782959</ele>
        <time>2015-04-21T09:15:39Z</time>
      </trkpt>
      <trkpt lat="44.50237" lon="5.729">
        <ele>795.1474609</ele>
        <time>2015-04-21T09:15:59Z</time>
      </trkpt>
      <trkpt lat="44.50264" lon="5.72913">
        <ele>798.0317383</ele>
        <time>2015-04-21T09:16:20Z</time>
      </trkpt>
      <trkpt lat="44.50287" lon="5.72926">
        <ele>799.9543457</ele>
        <time>2015-04-21T09:16:37Z</time>
      </trkpt>
      <trkpt lat="44.50315" lon="5.72941">
        <ele>802.8381348</ele>
        <time>2015-04-21T09:16:59Z</time>
      </trkpt>
      <trkpt lat="44.50342" lon="5.72933">
        <ele>806.2026367</ele>
        <time>2015-04-21T09:17:20Z</time>
      </trkpt>
      <trkpt lat="44.50364" lon="5.7294">
        <ele>806.6833496</ele>
        <time>2015-04-21T09:17:42Z</time>
      </trkpt>
      <trkpt lat="44.50367" lon="5.72947">
        <ele>806.6833496</ele>
        <time>2015-04-21T09:18:40Z</time>
      </trkpt>
      <trkpt lat="44.50368" lon="5.72946">
        <ele>805.2414551</ele>
        <time>2015-04-21T09:18:55Z</time>
      </trkpt>
      <trkpt lat="44.50368" lon="5.72946">
        <ele>807.6447754</ele>
        <time>2015-04-21T09:19:05Z</time>
      </trkpt>
      <trkpt lat="44.50368" lon="5.72946">
        <ele>805.722168</ele>
        <time>2015-04-21T09:19:07Z</time>
      </trkpt>
      <trkpt lat="44.50368" lon="5.72946">
        <ele>805.722168</ele>
        <time>2015-04-21T09:23:34Z</time>
      </trkpt>
      <trkpt lat="44.50368" lon="5.72946">
        <ele>807.1640625</ele>
        <time>2015-04-21T09:23:52Z</time>
      </trkpt>
      <trkpt lat="44.50368" lon="5.72946">
        <ele>805.722168</ele>
        <time>2015-04-21T09:24:11Z</time>
      </trkpt>
      <trkpt lat="44.50369" lon="5.72946">
        <ele>806.2026367</ele>
        <time>2015-04-21T09:25:04Z</time>
      </trkpt>
      <trkpt lat="44.50369" lon="5.72948">
        <ele>806.2026367</ele>
        <time>2015-04-21T09:25:20Z</time>
      </trkpt>
      <trkpt lat="44.50381" lon="5.72975">
        <ele>807.6447754</ele>
        <time>2015-04-21T09:25:32Z</time>
      </trkpt>
      <trkpt lat="44.50394" lon="5.73028">
        <ele>807.1640625</ele>
        <time>2015-04-21T09:25:53Z</time>
      </trkpt>
      <trkpt lat="44.5039" lon="5.73095">
        <ele>806.6833496</ele>
        <time>2015-04-21T09:26:08Z</time>
      </trkpt>
      <trkpt lat="44.50403" lon="5.73131">
        <ele>806.6833496</ele>
        <time>2015-04-21T09:26:23Z</time>
      </trkpt>
      <trkpt lat="44.50437" lon="5.7313">
        <ele>808.605957</ele>
        <time>2015-04-21T09:26:40Z</time>
      </trkpt>
      <trkpt lat="44.5049" lon="5.7313">
        <ele>809.0866699</ele>
        <time>2015-04-21T09:27:04Z</time>
      </trkpt>
      <trkpt lat="44.5054" lon="5.7315">
        <ele>809.5673828</ele>
        <time>2015-04-21T09:27:25Z</time>
      </trkpt>
      <trkpt lat="44.50581" lon="5.73149">
        <ele>810.0478516</ele>
        <time>2015-04-21T09:27:40Z</time>
      </trkpt>
      <trkpt lat="44.50621" lon="5.73144">
        <ele>810.5285645</ele>
        <time>2015-04-21T09:27:55Z</time>
      </trkpt>
      <trkpt lat="44.50669" lon="5.73146">
        <ele>810.5285645</ele>
        <time>2015-04-21T09:28:13Z</time>
      </trkpt>
      <trkpt lat="44.50707" lon="5.73177">
        <ele>811.4899902</ele>
        <time>2015-04-21T09:28:33Z</time>
      </trkpt>
      <trkpt lat="44.50747" lon="5.73212">
        <ele>812.451416</ele>
        <time>2015-04-21T09:28:52Z</time>
      </trkpt>
      <trkpt lat="44.50802" lon="5.73255">
        <ele>811.9707031</ele>
        <time>2015-04-21T09:29:18Z</time>
      </trkpt>
      <trkpt lat="44.50854" lon="5.73296">
        <ele>811.9707031</ele>
        <time>2015-04-21T09:29:41Z</time>
      </trkpt>
      <trkpt lat="44.50913" lon="5.73346">
        <ele>813.4128418</ele>
        <time>2015-04-21T09:30:07Z</time>
      </trkpt>
      <trkpt lat="44.50968" lon="5.73393">
        <ele>812.9321289</ele>
        <time>2015-04-21T09:30:31Z</time>
      </trkpt>
      <trkpt lat="44.51018" lon="5.73444">
        <ele>815.3354492</ele>
        <time>2015-04-21T09:30:55Z</time>
      </trkpt>
      <trkpt lat="44.51047" lon="5.73444">
        <ele>815.3354492</ele>
        <time>2015-04-21T09:31:08Z</time>
      </trkpt>
      <trkpt lat="44.51073" lon="5.73462">
        <ele>815.3354492</ele>
        <time>2015-04-21T09:31:20Z</time>
      </trkpt>
      <trkpt lat="44.51087" lon="5.73477">
        <ele>814.3740234</ele>
        <time>2015-04-21T09:31:26Z</time>
      </trkpt>
      <trkpt lat="44.51141" lon="5.73558">
        <ele>815.3354492</ele>
        <time>2015-04-21T09:31:55Z</time>
      </trkpt>
      <trkpt lat="44.51165" lon="5.73597">
        <ele>817.7385254</ele>
        <time>2015-04-21T09:32:08Z</time>
      </trkpt>
      <trkpt lat="44.51223" lon="5.73643">
        <ele>817.2580566</ele>
        <time>2015-04-21T09:32:33Z</time>
      </trkpt>
      <trkpt lat="44.51286" lon="5.7365">
        <ele>818.6999512</ele>
        <time>2015-04-21T09:32:57Z</time>
      </trkpt>
      <trkpt lat="44.51361" lon="5.73658">
        <ele>819.1806641</ele>
        <time>2015-04-21T09:33:26Z</time>
      </trkpt>
      <trkpt lat="44.51456" lon="5.73671">
        <ele>820.1418457</ele>
        <time>2015-04-21T09:34:02Z</time>
      </trkpt>
      <trkpt lat="44.51513" lon="5.7368">
        <ele>821.1032715</ele>
        <time>2015-04-21T09:34:24Z</time>
      </trkpt>
      <trkpt lat="44.51572" lon="5.73689">
        <ele>821.5837402</ele>
        <time>2015-04-21T09:34:48Z</time>
      </trkpt>
      <trkpt lat="44.51634" lon="5.73699">
        <ele>822.545166</ele>
        <time>2015-04-21T09:35:12Z</time>
      </trkpt>
      <trkpt lat="44.51669" lon="5.73732">
        <ele>822.545166</ele>
        <time>2015-04-21T09:35:30Z</time>
      </trkpt>
      <trkpt lat="44.51661" lon="5.73807">
        <ele>823.0258789</ele>
        <time>2015-04-21T09:35:46Z</time>
      </trkpt>
      <trkpt lat="44.51646" lon="5.73915">
        <ele>823.0258789</ele>
        <time>2015-04-21T09:36:10Z</time>
      </trkpt>
      <trkpt lat="44.51634" lon="5.74031">
        <ele>823.0258789</ele>
        <time>2015-04-21T09:36:36Z</time>
      </trkpt>
      <trkpt lat="44.51635" lon="5.74124">
        <ele>823.5065918</ele>
        <time>2015-04-21T09:36:57Z</time>
      </trkpt>
      <trkpt lat="44.51635" lon="5.74125">
        <ele>822.545166</ele>
        <time>2015-04-21T09:37:12Z</time>
      </trkpt>
      <trkpt lat="44.51635" lon="5.74126">
        <ele>823.0258789</ele>
        <time>2015-04-21T09:38:31Z</time>
      </trkpt>
      <trkpt lat="44.51653" lon="5.74158">
        <ele>823.0258789</ele>
        <time>2015-04-21T09:38:45Z</time>
      </trkpt>
      <trkpt lat="44.51694" lon="5.74211">
        <ele>823.5065918</ele>
        <time>2015-04-21T09:39:04Z</time>
      </trkpt>
      <trkpt lat="44.51721" lon="5.74247">
        <ele>823.9870605</ele>
        <time>2015-04-21T09:39:21Z</time>
      </trkpt>
      <trkpt lat="44.51765" lon="5.74274">
        <ele>824.4677734</ele>
        <time>2015-04-21T09:39:40Z</time>
      </trkpt>
      <trkpt lat="44.51798" lon="5.74302">
        <ele>824.9484863</ele>
        <time>2015-04-21T09:39:56Z</time>
      </trkpt>
      <trkpt lat="44.51824" lon="5.74274">
        <ele>824.9484863</ele>
        <time>2015-04-21T09:40:08Z</time>
      </trkpt>
      <trkpt lat="44.51832" lon="5.74213">
        <ele>825.4289551</ele>
        <time>2015-04-21T09:40:22Z</time>
      </trkpt>
      <trkpt lat="44.51828" lon="5.74127">
        <ele>824.9484863</ele>
        <time>2015-04-21T09:40:40Z</time>
      </trkpt>
      <trkpt lat="44.51807" lon="5.74058">
        <ele>825.4289551</ele>
        <time>2015-04-21T09:40:54Z</time>
      </trkpt>
      <trkpt lat="44.51812" lon="5.73986">
        <ele>825.4289551</ele>
        <time>2015-04-21T09:41:09Z</time>
      </trkpt>
      <trkpt lat="44.51841" lon="5.73934">
        <ele>825.909668</ele>
        <time>2015-04-21T09:41:26Z</time>
      </trkpt>
      <trkpt lat="44.51854" lon="5.73923">
        <ele>825.909668</ele>
        <time>2015-04-21T09:41:33Z</time>
      </trkpt>
      <trkpt lat="44.51851" lon="5.73908">
        <ele>826.3903809</ele>
        <time>2015-04-21T09:41:39Z</time>
      </trkpt>
      <trkpt lat="44.51857" lon="5.73907">
        <ele>826.3903809</ele>
        <time>2015-04-21T09:41:44Z</time>
      </trkpt>
      <trkpt lat="44.51865" lon="5.73907">
        <ele>826.3903809</ele>
        <time>2015-04-21T09:41:49Z</time>
      </trkpt>
      <trkpt lat="44.51878" lon="5.73877">
        <ele>826.8710938</ele>
        <time>2015-04-21T09:42:01Z</time>
      </trkpt>
      <trkpt lat="44.51897" lon="5.73851">
        <ele>827.3518066</ele>
        <time>2015-04-21T09:42:14Z</time>
      </trkpt>
      <trkpt lat="44.51906" lon="5.73852">
        <ele>827.3518066</ele>
        <time>2015-04-21T09:42:18Z</time>
      </trkpt>
      <trkpt lat="44.51909" lon="5.73851">
        <ele>827.3518066</ele>
        <time>2015-04-21T09:42:35Z</time>
      </trkpt>
      <trkpt lat="44.51908" lon="5.73851">
        <ele>827.3518066</ele>
        <time>2015-04-21T09:43:04Z</time>
      </trkpt>
      <trkpt lat="44.51908" lon="5.73847">
        <ele>826.8710938</ele>
        <time>2015-04-21T09:43:37Z</time>
      </trkpt>
      <trkpt lat="44.5191" lon="5.73853">
        <ele>826.8710938</ele>
        <time>2015-04-21T09:43:56Z</time>
      </trkpt>
      <trkpt lat="44.5191" lon="5.73853">
        <ele>827.8322754</ele>
        <time>2015-04-21T09:43:59Z</time>
      </trkpt>
      <trkpt lat="44.5191" lon="5.73852">
        <ele>825.909668</ele>
        <time>2015-04-21T09:44:01Z</time>
      </trkpt>
      <trkpt lat="44.5191" lon="5.73852">
        <ele>825.909668</ele>
        <time>2015-04-21T09:45:06Z</time>
      </trkpt>
      <trkpt lat="44.5191" lon="5.73851">
        <ele>825.4289551</ele>
        <time>2015-04-21T09:45:23Z</time>
      </trkpt>
      <trkpt lat="44.51909" lon="5.73851">
        <ele>825.909668</ele>
        <time>2015-04-21T09:46:48Z</time>
      </trkpt>
      <trkpt lat="44.5191" lon="5.7385">
        <ele>829.2744141</ele>
        <time>2015-04-21T09:57:16Z</time>
      </trkpt>
      <trkpt lat="44.51909" lon="5.73842">
        <ele>829.2744141</ele>
        <time>2015-04-21T09:57:36Z</time>
      </trkpt>
      <trkpt lat="44.51907" lon="5.73838">
        <ele>828.7939453</ele>
        <time>2015-04-21T09:57:53Z</time>
      </trkpt>
      <trkpt lat="44.51908" lon="5.73837">
        <ele>828.7939453</ele>
        <time>2015-04-21T09:58:11Z</time>
      </trkpt>
      <trkpt lat="44.51904" lon="5.73837">
        <ele>827.8322754</ele>
        <time>2015-04-21T09:58:21Z</time>
      </trkpt>
      <trkpt lat="44.51902" lon="5.73839">
        <ele>831.1972656</ele>
        <time>2015-04-21T10:33:28Z</time>
      </trkpt>
      <trkpt lat="44.51901" lon="5.7384">
        <ele>831.1972656</ele>
        <time>2015-04-21T10:37:30Z</time>
      </trkpt>
      <trkpt lat="44.51901" lon="5.73841">
        <ele>831.1972656</ele>
        <time>2015-04-21T10:38:00Z</time>
      </trkpt>
      <trkpt lat="44.51908" lon="5.73849">
        <ele>831.1972656</ele>
        <time>2015-04-21T10:38:31Z</time>
      </trkpt>
      <trkpt lat="44.51906" lon="5.73855">
        <ele>830.7165527</ele>
        <time>2015-04-21T10:39:28Z</time>
      </trkpt>
      <trkpt lat="44.51906" lon="5.73856">
        <ele>831.1972656</ele>
        <time>2015-04-21T10:39:59Z</time>
      </trkpt>
      <trkpt lat="44.51906" lon="5.73859">
        <ele>831.6777344</ele>
        <time>2015-04-21T10:40:01Z</time>
      </trkpt>
      <trkpt lat="44.51905" lon="5.7387">
        <ele>831.1972656</ele>
        <time>2015-04-21T10:40:13Z</time>
      </trkpt>
      <trkpt lat="44.51885" lon="5.73887">
        <ele>831.1972656</ele>
        <time>2015-04-21T10:40:27Z</time>
      </trkpt>
      <trkpt lat="44.51864" lon="5.73912">
        <ele>830.7165527</ele>
        <time>2015-04-21T10:40:40Z</time>
      </trkpt>
      <trkpt lat="44.51824" lon="5.73955">
        <ele>830.2358398</ele>
        <time>2015-04-21T10:40:56Z</time>
      </trkpt>
      <trkpt lat="44.51805" lon="5.74012">
        <ele>829.755127</ele>
        <time>2015-04-21T10:41:10Z</time>
      </trkpt>
      <trkpt lat="44.51807" lon="5.74074">
        <ele>829.2744141</ele>
        <time>2015-04-21T10:41:26Z</time>
      </trkpt>
      <trkpt lat="44.51811" lon="5.74087">
        <ele>829.2744141</ele>
        <time>2015-04-21T10:41:31Z</time>
      </trkpt>
      <trkpt lat="44.51816" lon="5.74092">
        <ele>828.3132324</ele>
        <time>2015-04-21T10:41:35Z</time>
      </trkpt>
      <trkpt lat="44.5184" lon="5.74122">
        <ele>825.909668</ele>
        <time>2015-04-21T10:41:48Z</time>
      </trkpt>
      <trkpt lat="44.51843" lon="5.74126">
        <ele>824.9484863</ele>
        <time>2015-04-21T10:41:50Z</time>
      </trkpt>
      <trkpt lat="44.51861" lon="5.74155">
        <ele>821.5837402</ele>
        <time>2015-04-21T10:42:05Z</time>
      </trkpt>
      <trkpt lat="44.51873" lon="5.74175">
        <ele>818.6999512</ele>
        <time>2015-04-21T10:42:16Z</time>
      </trkpt>
      <trkpt lat="44.51877" lon="5.74185">
        <ele>817.2580566</ele>
        <time>2015-04-21T10:42:20Z</time>
      </trkpt>
      <trkpt lat="44.51885" lon="5.74216">
        <ele>813.8933105</ele>
        <time>2015-04-21T10:42:32Z</time>
      </trkpt>
      <trkpt lat="44.51885" lon="5.74252">
        <ele>810.0478516</ele>
        <time>2015-04-21T10:42:40Z</time>
      </trkpt>
      <trkpt lat="44.51884" lon="5.74255">
        <ele>810.0478516</ele>
        <time>2015-04-21T10:42:41Z</time>
      </trkpt>
      <trkpt lat="44.51882" lon="5.74282">
        <ele>807.1640625</ele>
        <time>2015-04-21T10:42:48Z</time>
      </trkpt>
      <trkpt lat="44.5188" lon="5.74301">
        <ele>805.2414551</ele>
        <time>2015-04-21T10:42:52Z</time>
      </trkpt>
      <trkpt lat="44.51878" lon="5.74319">
        <ele>803.3188477</ele>
        <time>2015-04-21T10:42:55Z</time>
      </trkpt>
      <trkpt lat="44.51875" lon="5.7433">
        <ele>802.3574219</ele>
        <time>2015-04-21T10:42:57Z</time>
      </trkpt>
      <trkpt lat="44.51869" lon="5.74356">
        <ele>798.512207</ele>
        <time>2015-04-21T10:43:03Z</time>
      </trkpt>
      <trkpt lat="44.51868" lon="5.74361">
        <ele>798.512207</ele>
        <time>2015-04-21T10:43:04Z</time>
      </trkpt>
      <trkpt lat="44.51863" lon="5.74382">
        <ele>794.1862793</ele>
        <time>2015-04-21T10:43:10Z</time>
      </trkpt>
      <trkpt lat="44.51862" lon="5.74386">
        <ele>794.1862793</ele>
        <time>2015-04-21T10:43:11Z</time>
      </trkpt>
      <trkpt lat="44.51859" lon="5.74401">
        <ele>791.3022461</ele>
        <time>2015-04-21T10:43:16Z</time>
      </trkpt>
      <trkpt lat="44.51858" lon="5.74407">
        <ele>790.3410645</ele>
        <time>2015-04-21T10:43:18Z</time>
      </trkpt>
      <trkpt lat="44.51856" lon="5.74424">
        <ele>786.9763184</ele>
        <time>2015-04-21T10:43:23Z</time>
      </trkpt>
      <trkpt lat="44.51855" lon="5.7443">
        <ele>785.5344238</ele>
        <time>2015-04-21T10:43:25Z</time>
      </trkpt>
      <trkpt lat="44.51851" lon="5.74442">
        <ele>782.6506348</ele>
        <time>2015-04-21T10:43:29Z</time>
      </trkpt>
      <trkpt lat="44.51847" lon="5.74452">
        <ele>780.7280273</ele>
        <time>2015-04-21T10:43:32Z</time>
      </trkpt>
      <trkpt lat="44.5184" lon="5.74465">
        <ele>776.8825684</ele>
        <time>2015-04-21T10:43:37Z</time>
      </trkpt>
      <trkpt lat="44.51839" lon="5.74467">
        <ele>776.8825684</ele>
        <time>2015-04-21T10:43:38Z</time>
      </trkpt>
      <trkpt lat="44.51833" lon="5.74481">
        <ele>773.9985352</ele>
        <time>2015-04-21T10:43:43Z</time>
      </trkpt>
      <trkpt lat="44.51831" lon="5.74501">
        <ele>771.5952148</ele>
        <time>2015-04-21T10:43:48Z</time>
      </trkpt>
      <trkpt lat="44.51833" lon="5.74517">
        <ele>769.1921387</ele>
        <time>2015-04-21T10:43:52Z</time>
      </trkpt>
      <trkpt lat="44.51839" lon="5.74529">
        <ele>767.75</ele>
        <time>2015-04-21T10:43:56Z</time>
      </trkpt>
      <trkpt lat="44.51868" lon="5.74567">
        <ele>769.1921387</ele>
        <time>2015-04-21T10:44:12Z</time>
      </trkpt>
      <trkpt lat="44.51894" lon="5.74608">
        <ele>771.5952148</ele>
        <time>2015-04-21T10:44:31Z</time>
      </trkpt>
      <trkpt lat="44.51927" lon="5.74659">
        <ele>773.0373535</ele>
        <time>2015-04-21T10:44:52Z</time>
      </trkpt>
      <trkpt lat="44.51958" lon="5.74708">
        <ele>775.4404297</ele>
        <time>2015-04-21T10:45:11Z</time>
      </trkpt>
      <trkpt lat="44.51991" lon="5.7475">
        <ele>775.9211426</ele>
        <time>2015-04-21T10:45:27Z</time>
      </trkpt>
      <trkpt lat="44.52045" lon="5.74804">
        <ele>776.8825684</ele>
        <time>2015-04-21T10:45:45Z</time>
      </trkpt>
      <trkpt lat="44.5207" lon="5.74882">
        <ele>777.3632813</ele>
        <time>2015-04-21T10:46:01Z</time>
      </trkpt>
      <trkpt lat="44.52097" lon="5.74941">
        <ele>777.84375</ele>
        <time>2015-04-21T10:46:20Z</time>
      </trkpt>
      <trkpt lat="44.52101" lon="5.74962">
        <ele>778.3244629</ele>
        <time>2015-04-21T10:46:37Z</time>
      </trkpt>
      <trkpt lat="44.52105" lon="5.75029">
        <ele>777.84375</ele>
        <time>2015-04-21T10:46:51Z</time>
      </trkpt>
      <trkpt lat="44.52112" lon="5.7505">
        <ele>777.84375</ele>
        <time>2015-04-21T10:46:58Z</time>
      </trkpt>
      <trkpt lat="44.52134" lon="5.75114">
        <ele>778.3244629</ele>
        <time>2015-04-21T10:47:21Z</time>
      </trkpt>
      <trkpt lat="44.52149" lon="5.75148">
        <ele>777.84375</ele>
        <time>2015-04-21T10:47:36Z</time>
      </trkpt>
      <trkpt lat="44.52152" lon="5.75158">
        <ele>777.3632813</ele>
        <time>2015-04-21T10:47:48Z</time>
      </trkpt>
      <trkpt lat="44.52155" lon="5.75159">
        <ele>777.3632813</ele>
        <time>2015-04-21T10:48:29Z</time>
      </trkpt>
      <trkpt lat="44.52159" lon="5.75161">
        <ele>778.3244629</ele>
        <time>2015-04-21T10:49:18Z</time>
      </trkpt>
      <trkpt lat="44.52159" lon="5.75159">
        <ele>778.3244629</ele>
        <time>2015-04-21T10:49:43Z</time>
      </trkpt>
      <trkpt lat="44.52159" lon="5.75162">
        <ele>781.2087402</ele>
        <time>2015-04-21T11:03:46Z</time>
      </trkpt>
      <trkpt lat="44.52162" lon="5.7516">
        <ele>783.6118164</ele>
        <time>2015-04-21T11:10:09Z</time>
      </trkpt>
      <trkpt lat="44.5216" lon="5.75165">
        <ele>783.1311035</ele>
        <time>2015-04-21T11:10:48Z</time>
      </trkpt>
      <trkpt lat="44.52157" lon="5.75165">
        <ele>783.1311035</ele>
        <time>2015-04-21T11:11:05Z</time>
      </trkpt>
      <trkpt lat="44.52156" lon="5.75163">
        <ele>783.6118164</ele>
        <time>2015-04-21T11:11:22Z</time>
      </trkpt>
      <trkpt lat="44.52153" lon="5.75166">
        <ele>783.6118164</ele>
        <time>2015-04-21T11:11:34Z</time>
      </trkpt>
      <trkpt lat="44.52153" lon="5.75166">
        <ele>783.1311035</ele>
        <time>2015-04-21T11:11:58Z</time>
      </trkpt>
      <trkpt lat="44.52154" lon="5.75168">
        <ele>783.1311035</ele>
        <time>2015-04-21T11:12:07Z</time>
      </trkpt>
      <trkpt lat="44.52155" lon="5.75171">
        <ele>783.1311035</ele>
        <time>2015-04-21T11:12:09Z</time>
      </trkpt>
      <trkpt lat="44.52152" lon="5.75178">
        <ele>783.1311035</ele>
        <time>2015-04-21T11:12:14Z</time>
      </trkpt>
      <trkpt lat="44.52141" lon="5.75197">
        <ele>782.6506348</ele>
        <time>2015-04-21T11:12:21Z</time>
      </trkpt>
      <trkpt lat="44.52122" lon="5.75215">
        <ele>781.2087402</ele>
        <time>2015-04-21T11:12:27Z</time>
      </trkpt>
      <trkpt lat="44.52114" lon="5.75224">
        <ele>780.7280273</ele>
        <time>2015-04-21T11:12:31Z</time>
      </trkpt>
      <trkpt lat="44.52098" lon="5.75244">
        <ele>780.2473145</ele>
        <time>2015-04-21T11:12:44Z</time>
      </trkpt>
      <trkpt lat="44.52096" lon="5.75244">
        <ele>780.2473145</ele>
        <time>2015-04-21T11:13:27Z</time>
      </trkpt>
      <trkpt lat="44.52088" lon="5.7525">
        <ele>779.7663574</ele>
        <time>2015-04-21T11:13:32Z</time>
      </trkpt>
      <trkpt lat="44.52077" lon="5.75275">
        <ele>779.2856445</ele>
        <time>2015-04-21T11:13:44Z</time>
      </trkpt>
      <trkpt lat="44.52073" lon="5.75279">
        <ele>779.2856445</ele>
        <time>2015-04-21T11:13:47Z</time>
      </trkpt>
      <trkpt lat="44.52071" lon="5.75287">
        <ele>779.2856445</ele>
        <time>2015-04-21T11:13:57Z</time>
      </trkpt>
      <trkpt lat="44.52072" lon="5.75291">
        <ele>779.2856445</ele>
        <time>2015-04-21T11:14:03Z</time>
      </trkpt>
      <trkpt lat="44.52048" lon="5.75334">
        <ele>778.8051758</ele>
        <time>2015-04-21T11:14:16Z</time>
      </trkpt>
      <trkpt lat="44.52044" lon="5.75343">
        <ele>778.3244629</ele>
        <time>2015-04-21T11:14:18Z</time>
      </trkpt>
      <trkpt lat="44.52005" lon="5.754">
        <ele>776.8825684</ele>
        <time>2015-04-21T11:14:38Z</time>
      </trkpt>
      <trkpt lat="44.51973" lon="5.75431">
        <ele>776.4018555</ele>
        <time>2015-04-21T11:14:50Z</time>
      </trkpt>
      <trkpt lat="44.51965" lon="5.75437">
        <ele>776.4018555</ele>
        <time>2015-04-21T11:14:54Z</time>
      </trkpt>
      <trkpt lat="44.51957" lon="5.75439">
        <ele>776.8825684</ele>
        <time>2015-04-21T11:14:58Z</time>
      </trkpt>
      <trkpt lat="44.51958" lon="5.75448">
        <ele>776.8825684</ele>
        <time>2015-04-21T11:15:03Z</time>
      </trkpt>
      <trkpt lat="44.51955" lon="5.7546">
        <ele>775.9211426</ele>
        <time>2015-04-21T11:15:18Z</time>
      </trkpt>
      <trkpt lat="44.51956" lon="5.7546">
        <ele>776.8825684</ele>
        <time>2015-04-21T11:16:51Z</time>
      </trkpt>
      <trkpt lat="44.5196" lon="5.75463">
        <ele>776.8825684</ele>
        <time>2015-04-21T11:16:57Z</time>
      </trkpt>
      <trkpt lat="44.51963" lon="5.75463">
        <ele>777.3632813</ele>
        <time>2015-04-21T11:17:00Z</time>
      </trkpt>
      <trkpt lat="44.51986" lon="5.75474">
        <ele>776.8825684</ele>
        <time>2015-04-21T11:17:08Z</time>
      </trkpt>
      <trkpt lat="44.52053" lon="5.75501">
        <ele>774.9599609</ele>
        <time>2015-04-21T11:17:26Z</time>
      </trkpt>
      <trkpt lat="44.52097" lon="5.75522">
        <ele>775.4404297</ele>
        <time>2015-04-21T11:17:42Z</time>
      </trkpt>
      <trkpt lat="44.52144" lon="5.75566">
        <ele>776.4018555</ele>
        <time>2015-04-21T11:18:03Z</time>
      </trkpt>
      <trkpt lat="44.5218" lon="5.75614">
        <ele>776.4018555</ele>
        <time>2015-04-21T11:18:17Z</time>
      </trkpt>
      <trkpt lat="44.52242" lon="5.75677">
        <ele>776.8825684</ele>
        <time>2015-04-21T11:18:38Z</time>
      </trkpt>
      <trkpt lat="44.52283" lon="5.75724">
        <ele>777.3632813</ele>
        <time>2015-04-21T11:18:54Z</time>
      </trkpt>
      <trkpt lat="44.52293" lon="5.7577">
        <ele>776.4018555</ele>
        <time>2015-04-21T11:19:04Z</time>
      </trkpt>
      <trkpt lat="44.52336" lon="5.75816">
        <ele>776.8825684</ele>
        <time>2015-04-21T11:19:19Z</time>
      </trkpt>
      <trkpt lat="44.52353" lon="5.7583">
        <ele>776.8825684</ele>
        <time>2015-04-21T11:19:25Z</time>
      </trkpt>
      <trkpt lat="44.52356" lon="5.75842">
        <ele>777.3632813</ele>
        <time>2015-04-21T11:19:29Z</time>
      </trkpt>
      <trkpt lat="44.52351" lon="5.75857">
        <ele>776.8825684</ele>
        <time>2015-04-21T11:19:33Z</time>
      </trkpt>
      <trkpt lat="44.52351" lon="5.759">
        <ele>775.9211426</ele>
        <time>2015-04-21T11:19:39Z</time>
      </trkpt>
      <trkpt lat="44.52382" lon="5.75989">
        <ele>775.9211426</ele>
        <time>2015-04-21T11:19:52Z</time>
      </trkpt>
      <trkpt lat="44.52423" lon="5.76086">
        <ele>776.4018555</ele>
        <time>2015-04-21T11:20:10Z</time>
      </trkpt>
      <trkpt lat="44.52442" lon="5.7615">
        <ele>776.8825684</ele>
        <time>2015-04-21T11:20:24Z</time>
      </trkpt>
      <trkpt lat="44.52454" lon="5.76231">
        <ele>777.3632813</ele>
        <time>2015-04-21T11:20:40Z</time>
      </trkpt>
      <trkpt lat="44.52455" lon="5.76334">
        <ele>777.3632813</ele>
        <time>2015-04-21T11:20:59Z</time>
      </trkpt>
      <trkpt lat="44.52462" lon="5.76439">
        <ele>778.8051758</ele>
        <time>2015-04-21T11:21:22Z</time>
      </trkpt>
      <trkpt lat="44.52498" lon="5.7649">
        <ele>779.7663574</ele>
        <time>2015-04-21T11:21:39Z</time>
      </trkpt>
      <trkpt lat="44.52531" lon="5.76533">
        <ele>780.2473145</ele>
        <time>2015-04-21T11:21:55Z</time>
      </trkpt>
      <trkpt lat="44.52558" lon="5.76576">
        <ele>780.2473145</ele>
        <time>2015-04-21T11:22:07Z</time>
      </trkpt>
      <trkpt lat="44.52595" lon="5.76628">
        <ele>782.1699219</ele>
        <time>2015-04-21T11:22:20Z</time>
      </trkpt>
      <trkpt lat="44.5263" lon="5.76655">
        <ele>783.1311035</ele>
        <time>2015-04-21T11:22:33Z</time>
      </trkpt>
      <trkpt lat="44.52666" lon="5.7669">
        <ele>782.1699219</ele>
        <time>2015-04-21T11:22:48Z</time>
      </trkpt>
      <trkpt lat="44.52707" lon="5.76745">
        <ele>782.6506348</ele>
        <time>2015-04-21T11:23:07Z</time>
      </trkpt>
      <trkpt lat="44.52752" lon="5.76798">
        <ele>783.1311035</ele>
        <time>2015-04-21T11:23:25Z</time>
      </trkpt>
      <trkpt lat="44.52792" lon="5.76849">
        <ele>784.0925293</ele>
        <time>2015-04-21T11:23:42Z</time>
      </trkpt>
      <trkpt lat="44.52845" lon="5.76916">
        <ele>784.0925293</ele>
        <time>2015-04-21T11:24:04Z</time>
      </trkpt>
      <trkpt lat="44.52889" lon="5.76975">
        <ele>785.0539551</ele>
        <time>2015-04-21T11:24:24Z</time>
      </trkpt>
      <trkpt lat="44.52893" lon="5.7698">
        <ele>785.5344238</ele>
        <time>2015-04-21T11:24:26Z</time>
      </trkpt>
      <trkpt lat="44.5289" lon="5.76997">
        <ele>785.5344238</ele>
        <time>2015-04-21T11:24:32Z</time>
      </trkpt>
      <trkpt lat="44.52862" lon="5.77058">
        <ele>785.0539551</ele>
        <time>2015-04-21T11:24:48Z</time>
      </trkpt>
      <trkpt lat="44.52858" lon="5.77124">
        <ele>786.4958496</ele>
        <time>2015-04-21T11:25:04Z</time>
      </trkpt>
      <trkpt lat="44.52834" lon="5.77162">
        <ele>788.8991699</ele>
        <time>2015-04-21T11:25:20Z</time>
      </trkpt>
      <trkpt lat="44.52801" lon="5.77208">
        <ele>791.782959</ele>
        <time>2015-04-21T11:25:41Z</time>
      </trkpt>
      <trkpt lat="44.52766" lon="5.77261">
        <ele>795.1474609</ele>
        <time>2015-04-21T11:26:07Z</time>
      </trkpt>
      <trkpt lat="44.52735" lon="5.77287">
        <ele>798.0317383</ele>
        <time>2015-04-21T11:26:27Z</time>
      </trkpt>
      <trkpt lat="44.52695" lon="5.77285">
        <ele>800.4350586</ele>
        <time>2015-04-21T11:26:47Z</time>
      </trkpt>
      <trkpt lat="44.52648" lon="5.77268">
        <ele>801.3962402</ele>
        <time>2015-04-21T11:27:08Z</time>
      </trkpt>
      <trkpt lat="44.52614" lon="5.77254">
        <ele>803.3188477</ele>
        <time>2015-04-21T11:27:25Z</time>
      </trkpt>
      <trkpt lat="44.52594" lon="5.77216">
        <ele>803.7995605</ele>
        <time>2015-04-21T11:27:39Z</time>
      </trkpt>
      <trkpt lat="44.52569" lon="5.77204">
        <ele>805.722168</ele>
        <time>2015-04-21T11:27:54Z</time>
      </trkpt>
      <trkpt lat="44.52547" lon="5.77223">
        <ele>808.605957</ele>
        <time>2015-04-21T11:28:13Z</time>
      </trkpt>
      <trkpt lat="44.52531" lon="5.77239">
        <ele>811.9707031</ele>
        <time>2015-04-21T11:28:30Z</time>
      </trkpt>
      <trkpt lat="44.52508" lon="5.77247">
        <ele>815.3354492</ele>
        <time>2015-04-21T11:28:49Z</time>
      </trkpt>
      <trkpt lat="44.52497" lon="5.77272">
        <ele>817.7385254</ele>
        <time>2015-04-21T11:29:07Z</time>
      </trkpt>
      <trkpt lat="44.52488" lon="5.7731">
        <ele>821.1032715</ele>
        <time>2015-04-21T11:29:30Z</time>
      </trkpt>
      <trkpt lat="44.52487" lon="5.77315">
        <ele>821.5837402</ele>
        <time>2015-04-21T11:29:33Z</time>
      </trkpt>
      <trkpt lat="44.52487" lon="5.77352">
        <ele>824.4677734</ele>
        <time>2015-04-21T11:29:57Z</time>
      </trkpt>
      <trkpt lat="44.52498" lon="5.7738">
        <ele>826.8710938</ele>
        <time>2015-04-21T11:30:16Z</time>
      </trkpt>
      <trkpt lat="44.525" lon="5.77389">
        <ele>826.8710938</ele>
        <time>2015-04-21T11:30:21Z</time>
      </trkpt>
      <trkpt lat="44.52506" lon="5.77398">
        <ele>827.8322754</ele>
        <time>2015-04-21T11:30:29Z</time>
      </trkpt>
      <trkpt lat="44.52499" lon="5.77414">
        <ele>830.2358398</ele>
        <time>2015-04-21T11:30:45Z</time>
      </trkpt>
      <trkpt lat="44.52476" lon="5.77423">
        <ele>832.6391602</ele>
        <time>2015-04-21T11:31:06Z</time>
      </trkpt>
      <trkpt lat="44.5245" lon="5.77425">
        <ele>835.5229492</ele>
        <time>2015-04-21T11:31:29Z</time>
      </trkpt>
      <trkpt lat="44.52428" lon="5.77423">
        <ele>837.4455566</ele>
        <time>2015-04-21T11:31:48Z</time>
      </trkpt>
      <trkpt lat="44.52411" lon="5.77441">
        <ele>840.8100586</ele>
        <time>2015-04-21T11:32:05Z</time>
      </trkpt>
      <trkpt lat="44.52407" lon="5.7747">
        <ele>843.6940918</ele>
        <time>2015-04-21T11:32:22Z</time>
      </trkpt>
      <trkpt lat="44.52405" lon="5.77498">
        <ele>847.0588379</ele>
        <time>2015-04-21T11:32:40Z</time>
      </trkpt>
      <trkpt lat="44.52397" lon="5.77548">
        <ele>848.9814453</ele>
        <time>2015-04-21T11:33:09Z</time>
      </trkpt>
      <trkpt lat="44.52391" lon="5.77593">
        <ele>852.3459473</ele>
        <time>2015-04-21T11:33:36Z</time>
      </trkpt>
      <trkpt lat="44.52393" lon="5.77636">
        <ele>855.2299805</ele>
        <time>2015-04-21T11:34:02Z</time>
      </trkpt>
      <trkpt lat="44.52403" lon="5.77668">
        <ele>857.6333008</ele>
        <time>2015-04-21T11:34:26Z</time>
      </trkpt>
      <trkpt lat="44.52416" lon="5.77706">
        <ele>860.517334</ele>
        <time>2015-04-21T11:34:50Z</time>
      </trkpt>
      <trkpt lat="44.52426" lon="5.77754">
        <ele>863.4013672</ele>
        <time>2015-04-21T11:35:18Z</time>
      </trkpt>
      <trkpt lat="44.52428" lon="5.77783">
        <ele>865.8046875</ele>
        <time>2015-04-21T11:35:38Z</time>
      </trkpt>
      <trkpt lat="44.52427" lon="5.77798">
        <ele>867.7270508</ele>
        <time>2015-04-21T11:35:48Z</time>
      </trkpt>
      <trkpt lat="44.52427" lon="5.77802">
        <ele>867.7270508</ele>
        <time>2015-04-21T11:35:51Z</time>
      </trkpt>
      <trkpt lat="44.52424" lon="5.77839">
        <ele>871.0917969</ele>
        <time>2015-04-21T11:36:13Z</time>
      </trkpt>
      <trkpt lat="44.52422" lon="5.77855">
        <ele>871.5722656</ele>
        <time>2015-04-21T11:36:23Z</time>
      </trkpt>
      <trkpt lat="44.52416" lon="5.77891">
        <ele>874.4562988</ele>
        <time>2015-04-21T11:36:45Z</time>
      </trkpt>
      <trkpt lat="44.5242" lon="5.77926">
        <ele>877.3405762</ele>
        <time>2015-04-21T11:37:09Z</time>
      </trkpt>
      <trkpt lat="44.52429" lon="5.77953">
        <ele>880.7050781</ele>
        <time>2015-04-21T11:37:30Z</time>
      </trkpt>
      <trkpt lat="44.52432" lon="5.77972">
        <ele>881.6662598</ele>
        <time>2015-04-21T11:37:43Z</time>
      </trkpt>
      <trkpt lat="44.52435" lon="5.77992">
        <ele>883.1081543</ele>
        <time>2015-04-21T11:37:56Z</time>
      </trkpt>
      <trkpt lat="44.52447" lon="5.78018">
        <ele>885.0310059</ele>
        <time>2015-04-21T11:38:15Z</time>
      </trkpt>
      <trkpt lat="44.52465" lon="5.78056">
        <ele>888.3955078</ele>
        <time>2015-04-21T11:38:41Z</time>
      </trkpt>
      <trkpt lat="44.52477" lon="5.7808">
        <ele>890.3181152</ele>
        <time>2015-04-21T11:38:59Z</time>
      </trkpt>
      <trkpt lat="44.5248" lon="5.78085">
        <ele>891.7600098</ele>
        <time>2015-04-21T11:39:05Z</time>
      </trkpt>
      <trkpt lat="44.52484" lon="5.78091">
        <ele>892.2409668</ele>
        <time>2015-04-21T11:39:11Z</time>
      </trkpt>
      <trkpt lat="44.52499" lon="5.78115">
        <ele>893.6828613</ele>
        <time>2015-04-21T11:39:31Z</time>
      </trkpt>
      <trkpt lat="44.52503" lon="5.78121">
        <ele>894.1635742</ele>
        <time>2015-04-21T11:39:50Z</time>
      </trkpt>
      <trkpt lat="44.52504" lon="5.78121">
        <ele>894.1635742</ele>
        <time>2015-04-21T11:40:45Z</time>
      </trkpt>
      <trkpt lat="44.52504" lon="5.78119">
        <ele>894.1635742</ele>
        <time>2015-04-21T11:43:11Z</time>
      </trkpt>
      <trkpt lat="44.52513" lon="5.78146">
        <ele>895.6054688</ele>
        <time>2015-04-21T11:46:16Z</time>
      </trkpt>
      <trkpt lat="44.52529" lon="5.78187">
        <ele>897.0473633</ele>
        <time>2015-04-21T11:46:36Z</time>
      </trkpt>
      <trkpt lat="44.52542" lon="5.78234">
        <ele>898.9699707</ele>
        <time>2015-04-21T11:46:55Z</time>
      </trkpt>
      <trkpt lat="44.52556" lon="5.78291">
        <ele>901.373291</ele>
        <time>2015-04-21T11:47:17Z</time>
      </trkpt>
      <trkpt lat="44.52575" lon="5.78342">
        <ele>901.8540039</ele>
        <time>2015-04-21T11:47:40Z</time>
      </trkpt>
      <trkpt lat="44.52605" lon="5.78377">
        <ele>902.8151855</ele>
        <time>2015-04-21T11:48:00Z</time>
      </trkpt>
      <trkpt lat="44.52629" lon="5.78406">
        <ele>902.3344727</ele>
        <time>2015-04-21T11:48:14Z</time>
      </trkpt>
      <trkpt lat="44.5267" lon="5.78435">
        <ele>903.2958984</ele>
        <time>2015-04-21T11:48:33Z</time>
      </trkpt>
      <trkpt lat="44.52707" lon="5.78456">
        <ele>904.2573242</ele>
        <time>2015-04-21T11:48:51Z</time>
      </trkpt>
      <trkpt lat="44.52758" lon="5.78479">
        <ele>905.6992188</ele>
        <time>2015-04-21T11:49:12Z</time>
      </trkpt>
      <trkpt lat="44.52823" lon="5.78513">
        <ele>907.1411133</ele>
        <time>2015-04-21T11:49:40Z</time>
      </trkpt>
      <trkpt lat="44.52872" lon="5.78541">
        <ele>909.5446777</ele>
        <time>2015-04-21T11:50:02Z</time>
      </trkpt>
      <trkpt lat="44.52911" lon="5.78578">
        <ele>911.4672852</ele>
        <time>2015-04-21T11:50:22Z</time>
      </trkpt>
      <trkpt lat="44.52921" lon="5.78629">
        <ele>912.4284668</ele>
        <time>2015-04-21T11:50:37Z</time>
      </trkpt>
      <trkpt lat="44.52893" lon="5.78701">
        <ele>913.3898926</ele>
        <time>2015-04-21T11:50:56Z</time>
      </trkpt>
      <trkpt lat="44.52865" lon="5.7878">
        <ele>913.8703613</ele>
        <time>2015-04-21T11:51:15Z</time>
      </trkpt>
      <trkpt lat="44.52836" lon="5.78834">
        <ele>912.9091797</ele>
        <time>2015-04-21T11:51:30Z</time>
      </trkpt>
      <trkpt lat="44.52833" lon="5.78842">
        <ele>911.947998</ele>
        <time>2015-04-21T11:51:42Z</time>
      </trkpt>
      <trkpt lat="44.52825" lon="5.7886">
        <ele>911.4672852</ele>
        <time>2015-04-21T11:51:57Z</time>
      </trkpt>
      <trkpt lat="44.52824" lon="5.78862">
        <ele>910.9865723</ele>
        <time>2015-04-21T11:52:08Z</time>
      </trkpt>
      <trkpt lat="44.52822" lon="5.78859">
        <ele>911.4672852</ele>
        <time>2015-04-21T11:52:14Z</time>
      </trkpt>
      <trkpt lat="44.52826" lon="5.78837">
        <ele>912.9091797</ele>
        <time>2015-04-21T11:52:27Z</time>
      </trkpt>
      <trkpt lat="44.52828" lon="5.78826">
        <ele>914.3510742</ele>
        <time>2015-04-21T11:52:40Z</time>
      </trkpt>
      <trkpt lat="44.52834" lon="5.78811">
        <ele>915.7932129</ele>
        <time>2015-04-21T11:53:01Z</time>
      </trkpt>
      <trkpt lat="44.52835" lon="5.78812">
        <ele>915.7932129</ele>
        <time>2015-04-21T11:53:04Z</time>
      </trkpt>
      <trkpt lat="44.52844" lon="5.78782">
        <ele>917.2351074</ele>
        <time>2015-04-21T11:53:23Z</time>
      </trkpt>
      <trkpt lat="44.52855" lon="5.78739">
        <ele>920.5996094</ele>
        <time>2015-04-21T11:53:49Z</time>
      </trkpt>
      <trkpt lat="44.5286" lon="5.78708">
        <ele>923.0029297</ele>
        <time>2015-04-21T11:54:09Z</time>
      </trkpt>
      <trkpt lat="44.52861" lon="5.78675">
        <ele>926.3676758</ele>
        <time>2015-04-21T11:54:29Z</time>
      </trkpt>
      <trkpt lat="44.52855" lon="5.78636">
        <ele>928.2902832</ele>
        <time>2015-04-21T11:54:53Z</time>
      </trkpt>
      <trkpt lat="44.52827" lon="5.78611">
        <ele>930.2128906</ele>
        <time>2015-04-21T11:55:16Z</time>
      </trkpt>
      <trkpt lat="44.52794" lon="5.78587">
        <ele>931.1743164</ele>
        <time>2015-04-21T11:55:39Z</time>
      </trkpt>
      <trkpt lat="44.52757" lon="5.78569">
        <ele>930.6936035</ele>
        <time>2015-04-21T11:55:59Z</time>
      </trkpt>
      <trkpt lat="44.52706" lon="5.78554">
        <ele>931.6547852</ele>
        <time>2015-04-21T11:56:24Z</time>
      </trkpt>
      <trkpt lat="44.5266" lon="5.78536">
        <ele>932.135498</ele>
        <time>2015-04-21T11:56:44Z</time>
      </trkpt>
      <trkpt lat="44.52613" lon="5.78511">
        <ele>933.5773926</ele>
        <time>2015-04-21T11:57:05Z</time>
      </trkpt>
      <trkpt lat="44.52553" lon="5.78472">
        <ele>934.5388184</ele>
        <time>2015-04-21T11:57:28Z</time>
      </trkpt>
      <trkpt lat="44.52508" lon="5.78416">
        <ele>935.5</ele>
        <time>2015-04-21T11:57:46Z</time>
      </trkpt>
      <trkpt lat="44.52482" lon="5.78363">
        <ele>937.4226074</ele>
        <time>2015-04-21T11:58:06Z</time>
      </trkpt>
      <trkpt lat="44.5247" lon="5.78324">
        <ele>939.3452148</ele>
        <time>2015-04-21T11:58:27Z</time>
      </trkpt>
      <trkpt lat="44.52466" lon="5.7832">
        <ele>939.8259277</ele>
        <time>2015-04-21T11:58:39Z</time>
      </trkpt>
      <trkpt lat="44.52464" lon="5.78321">
        <ele>940.3068848</ele>
        <time>2015-04-21T11:59:14Z</time>
      </trkpt>
      <trkpt lat="44.52463" lon="5.78322">
        <ele>940.3068848</ele>
        <time>2015-04-21T12:00:55Z</time>
      </trkpt>
      <trkpt lat="44.52462" lon="5.78313">
        <ele>940.7873535</ele>
        <time>2015-04-21T12:01:31Z</time>
      </trkpt>
      <trkpt lat="44.52457" lon="5.78314">
        <ele>939.3452148</ele>
        <time>2015-04-21T12:01:36Z</time>
      </trkpt>
      <trkpt lat="44.52445" lon="5.78328">
        <ele>939.8259277</ele>
        <time>2015-04-21T12:01:48Z</time>
      </trkpt>
      <trkpt lat="44.52444" lon="5.78336">
        <ele>940.3068848</ele>
        <time>2015-04-21T12:01:58Z</time>
      </trkpt>
      <trkpt lat="44.5244" lon="5.78349">
        <ele>942.2294922</ele>
        <time>2015-04-21T12:02:14Z</time>
      </trkpt>
      <trkpt lat="44.52434" lon="5.78357">
        <ele>943.1906738</ele>
        <time>2015-04-21T12:02:29Z</time>
      </trkpt>
      <trkpt lat="44.5243" lon="5.78367">
        <ele>943.6713867</ele>
        <time>2015-04-21T12:02:42Z</time>
      </trkpt>
      <trkpt lat="44.52428" lon="5.7837">
        <ele>944.1520996</ele>
        <time>2015-04-21T12:02:52Z</time>
      </trkpt>
      <trkpt lat="44.52413" lon="5.7838">
        <ele>944.1520996</ele>
        <time>2015-04-21T12:03:04Z</time>
      </trkpt>
      <trkpt lat="44.52407" lon="5.7839">
        <ele>945.5939941</ele>
        <time>2015-04-21T12:03:16Z</time>
      </trkpt>
      <trkpt lat="44.52407" lon="5.78395">
        <ele>947.0358887</ele>
        <time>2015-04-21T12:03:28Z</time>
      </trkpt>
      <trkpt lat="44.52406" lon="5.7841">
        <ele>949.9199219</ele>
        <time>2015-04-21T12:03:48Z</time>
      </trkpt>
      <trkpt lat="44.52404" lon="5.78416">
        <ele>950.8811035</ele>
        <time>2015-04-21T12:03:58Z</time>
      </trkpt>
      <trkpt lat="44.52404" lon="5.78421">
        <ele>952.322998</ele>
        <time>2015-04-21T12:04:11Z</time>
      </trkpt>
      <trkpt lat="44.52406" lon="5.78427">
        <ele>954.2458496</ele>
        <time>2015-04-21T12:04:22Z</time>
      </trkpt>
      <trkpt lat="44.52402" lon="5.78442">
        <ele>956.168457</ele>
        <time>2015-04-21T12:04:34Z</time>
      </trkpt>
      <trkpt lat="44.52397" lon="5.78457">
        <ele>957.6105957</ele>
        <time>2015-04-21T12:04:48Z</time>
      </trkpt>
      <trkpt lat="44.52392" lon="5.7847">
        <ele>958.5717773</ele>
        <time>2015-04-21T12:05:00Z</time>
      </trkpt>
      <trkpt lat="44.52386" lon="5.78468">
        <ele>959.5332031</ele>
        <time>2015-04-21T12:05:08Z</time>
      </trkpt>
      <trkpt lat="44.52385" lon="5.78471">
        <ele>960.0136719</ele>
        <time>2015-04-21T12:05:13Z</time>
      </trkpt>
      <trkpt lat="44.52384" lon="5.78482">
        <ele>961.4558105</ele>
        <time>2015-04-21T12:05:24Z</time>
      </trkpt>
      <trkpt lat="44.52379" lon="5.7849">
        <ele>961.9365234</ele>
        <time>2015-04-21T12:05:37Z</time>
      </trkpt>
      <trkpt lat="44.52379" lon="5.78492">
        <ele>962.8977051</ele>
        <time>2015-04-21T12:06:21Z</time>
      </trkpt>
      <trkpt lat="44.52381" lon="5.78496">
        <ele>962.8977051</ele>
        <time>2015-04-21T12:06:23Z</time>
      </trkpt>
      <trkpt lat="44.52381" lon="5.78503">
        <ele>964.3395996</ele>
        <time>2015-04-21T12:06:27Z</time>
      </trkpt>
      <trkpt lat="44.52385" lon="5.7851">
        <ele>964.8203125</ele>
        <time>2015-04-21T12:06:31Z</time>
      </trkpt>
      <trkpt lat="44.52384" lon="5.7852">
        <ele>966.262207</ele>
        <time>2015-04-21T12:06:37Z</time>
      </trkpt>
      <trkpt lat="44.52381" lon="5.78526">
        <ele>967.2236328</ele>
        <time>2015-04-21T12:06:46Z</time>
      </trkpt>
      <trkpt lat="44.52382" lon="5.78535">
        <ele>968.1848145</ele>
        <time>2015-04-21T12:06:50Z</time>
      </trkpt>
      <trkpt lat="44.52384" lon="5.78562">
        <ele>969.6269531</ele>
        <time>2015-04-21T12:07:03Z</time>
      </trkpt>
      <trkpt lat="44.52387" lon="5.78571">
        <ele>971.5493164</ele>
        <time>2015-04-21T12:07:15Z</time>
      </trkpt>
      <trkpt lat="44.52394" lon="5.78576">
        <ele>971.5493164</ele>
        <time>2015-04-21T12:07:36Z</time>
      </trkpt>
      <trkpt lat="44.52395" lon="5.78582">
        <ele>972.0302734</ele>
        <time>2015-04-21T12:08:40Z</time>
      </trkpt>
      <trkpt lat="44.52385" lon="5.78584">
        <ele>972.0302734</ele>
        <time>2015-04-21T12:08:46Z</time>
      </trkpt>
      <trkpt lat="44.52382" lon="5.78588">
        <ele>972.0302734</ele>
        <time>2015-04-21T12:08:48Z</time>
      </trkpt>
      <trkpt lat="44.52385" lon="5.78613">
        <ele>972.0302734</ele>
        <time>2015-04-21T12:09:02Z</time>
      </trkpt>
      <trkpt lat="44.52394" lon="5.7863">
        <ele>973.4724121</ele>
        <time>2015-04-21T12:09:16Z</time>
      </trkpt>
      <trkpt lat="44.52415" lon="5.78657">
        <ele>974.9143066</ele>
        <time>2015-04-21T12:09:31Z</time>
      </trkpt>
      <trkpt lat="44.52429" lon="5.78691">
        <ele>976.3562012</ele>
        <time>2015-04-21T12:09:46Z</time>
      </trkpt>
      <trkpt lat="44.52432" lon="5.78697">
        <ele>976.3562012</ele>
        <time>2015-04-21T12:09:49Z</time>
      </trkpt>
      <trkpt lat="44.52434" lon="5.78706">
        <ele>976.3562012</ele>
        <time>2015-04-21T12:09:53Z</time>
      </trkpt>
      <trkpt lat="44.52449" lon="5.78739">
        <ele>977.317627</ele>
        <time>2015-04-21T12:10:09Z</time>
      </trkpt>
      <trkpt lat="44.5245" lon="5.78741">
        <ele>977.317627</ele>
        <time>2015-04-21T12:10:10Z</time>
      </trkpt>
      <trkpt lat="44.5246" lon="5.78767">
        <ele>977.7980957</ele>
        <time>2015-04-21T12:10:22Z</time>
      </trkpt>
      <trkpt lat="44.52475" lon="5.78785">
        <ele>978.2788086</ele>
        <time>2015-04-21T12:10:35Z</time>
      </trkpt>
      <trkpt lat="44.52493" lon="5.78801">
        <ele>977.7980957</ele>
        <time>2015-04-21T12:10:50Z</time>
      </trkpt>
      <trkpt lat="44.52498" lon="5.78804">
        <ele>978.7595215</ele>
        <time>2015-04-21T12:11:01Z</time>
      </trkpt>
      <trkpt lat="44.52519" lon="5.78813">
        <ele>978.7595215</ele>
        <time>2015-04-21T12:11:10Z</time>
      </trkpt>
      <trkpt lat="44.52543" lon="5.78819">
        <ele>979.2399902</ele>
        <time>2015-04-21T12:11:22Z</time>
      </trkpt>
      <trkpt lat="44.52551" lon="5.78823">
        <ele>979.2399902</ele>
        <time>2015-04-21T12:11:27Z</time>
      </trkpt>
      <trkpt lat="44.52559" lon="5.78831">
        <ele>978.7595215</ele>
        <time>2015-04-21T12:11:32Z</time>
      </trkpt>
      <trkpt lat="44.52567" lon="5.78847">
        <ele>979.7207031</ele>
        <time>2015-04-21T12:11:43Z</time>
      </trkpt>
      <trkpt lat="44.52574" lon="5.78862">
        <ele>979.2399902</ele>
        <time>2015-04-21T12:11:57Z</time>
      </trkpt>
      <trkpt lat="44.52575" lon="5.78862">
        <ele>979.2399902</ele>
        <time>2015-04-21T12:12:07Z</time>
      </trkpt>
      <trkpt lat="44.52581" lon="5.78859">
        <ele>979.7207031</ele>
        <time>2015-04-21T12:12:12Z</time>
      </trkpt>
      <trkpt lat="44.52584" lon="5.78855">
        <ele>979.2399902</ele>
        <time>2015-04-21T12:12:29Z</time>
      </trkpt>
      <trkpt lat="44.52583" lon="5.78856">
        <ele>979.2399902</ele>
        <time>2015-04-21T12:12:56Z</time>
      </trkpt>
      <trkpt lat="44.52579" lon="5.78868">
        <ele>979.7207031</ele>
        <time>2015-04-21T12:13:11Z</time>
      </trkpt>
      <trkpt lat="44.52578" lon="5.78868">
        <ele>978.7595215</ele>
        <time>2015-04-21T12:13:23Z</time>
      </trkpt>
      <trkpt lat="44.52577" lon="5.78872">
        <ele>978.7595215</ele>
        <time>2015-04-21T12:15:40Z</time>
      </trkpt>
      <trkpt lat="44.52581" lon="5.78865">
        <ele>978.2788086</ele>
        <time>2015-04-21T12:16:14Z</time>
      </trkpt>
      <trkpt lat="44.52581" lon="5.78866">
        <ele>977.7980957</ele>
        <time>2015-04-21T12:16:41Z</time>
      </trkpt>
      <trkpt lat="44.52581" lon="5.78869">
        <ele>976.3562012</ele>
        <time>2015-04-21T12:16:46Z</time>
      </trkpt>
      <trkpt lat="44.52581" lon="5.7887">
        <ele>977.317627</ele>
        <time>2015-04-21T12:16:48Z</time>
      </trkpt>
    </trkseg>
  </trk>
</gpx>